Check out our new PWSWeather beta!
PWSweather.com
Personal Weather Stations
Station Observations
KFLDAVEN01
Del Webb Orlando, Davenport, FL 33837

Del Webb OrlandoDavenport, FL 33837

Lat: 28.181502, Lon: -81.623923

Elevation: 116

Station Type: Davis Vantage Pro 2 Plus

http://www.weathermike.com

Latest ConditionsUpdated 7:26:51 AM EST Thursday, Feb 27, 2020
Currently Today's Max Today's Min Today's Average
Temperature 49.5°F9.7°C 62.4°F16.9°C 49.3°F9.6°C 55.0°F12.8°C
Dew Point 43.9°F6.6°C 61.0°F16.1°C 43.3°F6.3°C 51.0°F10.6°C
Winds 6.9 mph WNW11.1 kmh WNW 12.1 mph -19.5 kmh - - 7.3 mph 11.7 kmh
Wind Gusts 11.0 mph17.7 kmh 19.0 mph30.6 kmh - -
Humidity 81% 95% 78% 86%
Pressure 30.19 in1022.4 mb 30.19 in1022.4 mb 30.04 in1017.3 mb -
Precipitation - 0.01 in0.3 mm - -
Hour Temp Dew Point Humidity Winds Wind Gusts Pressure Precip Precip Rate Daily Precip Total
07:26 AM 49.5°F9.7°C 43.9°F6.6°C 81% 6.9 mph WNW11.1 kmh WNW 11.0 mph17.7 kmh 30.19 in1022.4 mb 0.00 in0.0 mm 0.00 in0.0 mm 0.01 in0.3 mm
07:25 AM 49.3°F9.6°C 43.7°F6.5°C 81% 6.9 mph NW11.1 kmh NW 6.9 mph11.1 kmh 30.18 in1022.0 mb 0.00 in0.0 mm 0.00 in0.0 mm 0.01 in0.3 mm
07:24 AM 49.5°F9.7°C 43.5°F6.4°C 80% 6.9 mph NW11.1 kmh NW 13.0 mph20.9 kmh 30.18 in1022.0 mb 0.00 in0.0 mm 0.00 in0.0 mm 0.01 in0.3 mm
07:23 AM 49.5°F9.7°C 43.5°F6.4°C 80% 6.9 mph NW11.1 kmh NW 8.9 mph14.3 kmh 30.18 in1022.0 mb 0.00 in0.0 mm 0.00 in0.0 mm 0.01 in0.3 mm
07:22 AM 49.5°F9.7°C 43.5°F6.4°C 80% 8.1 mph NW13.0 kmh NW 6.9 mph11.1 kmh 30.18 in1022.0 mb 0.00 in0.0 mm 0.00 in0.0 mm 0.01 in0.3 mm
07:21 AM 49.5°F9.7°C 43.9°F6.6°C 81% 8.1 mph NNW13.0 kmh NNW 8.9 mph14.3 kmh 30.18 in1022.0 mb 0.00 in0.0 mm 0.00 in0.0 mm 0.01 in0.3 mm
07:19 AM 49.5°F9.7°C 43.9°F6.6°C 81% 8.1 mph NW13.0 kmh NW 11.0 mph17.7 kmh 30.18 in1022.0 mb 0.00 in0.0 mm 0.00 in0.0 mm 0.01 in0.3 mm
07:18 AM 49.5°F9.7°C 43.9°F6.6°C 81% 8.1 mph NW13.0 kmh NW 8.1 mph13.0 kmh 30.18 in1022.0 mb 0.00 in0.0 mm 0.00 in0.0 mm 0.01 in0.3 mm
07:17 AM 49.5°F9.7°C 43.5°F6.4°C 80% 8.1 mph WNW13.0 kmh WNW 10.1 mph16.3 kmh 30.18 in1022.0 mb 0.00 in0.0 mm 0.00 in0.0 mm 0.01 in0.3 mm
07:16 AM 49.5°F9.7°C 43.9°F6.6°C 81% 8.1 mph NW13.0 kmh NW 6.0 mph9.7 kmh 30.18 in1022.0 mb 0.00 in0.0 mm 0.00 in0.0 mm 0.01 in0.3 mm
07:15 AM 49.6°F9.8°C 43.7°F6.5°C 80% 8.1 mph NW13.0 kmh NW 12.1 mph19.5 kmh 30.18 in1022.0 mb 0.00 in0.0 mm 0.00 in0.0 mm 0.01 in0.3 mm
07:14 AM 49.5°F9.7°C 43.5°F6.4°C 80% 6.9 mph WNW11.1 kmh WNW 13.0 mph20.9 kmh 30.18 in1022.0 mb 0.00 in0.0 mm 0.00 in0.0 mm 0.01 in0.3 mm
07:12 AM 49.6°F9.8°C 44.1°F6.7°C 81% 6.9 mph NW11.1 kmh NW 10.1 mph16.3 kmh 30.18 in1022.0 mb 0.00 in0.0 mm 0.00 in0.0 mm 0.01 in0.3 mm
07:11 AM 49.6°F9.8°C 43.7°F6.5°C 80% 6.9 mph NW11.1 kmh NW 11.0 mph17.7 kmh 30.18 in1022.0 mb 0.00 in0.0 mm 0.00 in0.0 mm 0.01 in0.3 mm
07:10 AM 49.6°F9.8°C 43.7°F6.5°C 80% 6.9 mph NW11.1 kmh NW 8.9 mph14.3 kmh 30.18 in1022.0 mb 0.00 in0.0 mm 0.00 in0.0 mm 0.01 in0.3 mm
07:09 AM 49.6°F9.8°C 43.3°F6.3°C 79% 6.9 mph W11.1 kmh W 10.1 mph16.3 kmh 30.18 in1022.0 mb 0.00 in0.0 mm 0.00 in0.0 mm 0.01 in0.3 mm
07:08 AM 49.8°F9.9°C 43.5°F6.4°C 79% 6.9 mph NW11.1 kmh NW 12.1 mph19.5 kmh 30.18 in1022.0 mb 0.00 in0.0 mm 0.00 in0.0 mm 0.01 in0.3 mm
07:07 AM 49.8°F9.9°C 43.9°F6.6°C 80% 6.9 mph NW11.1 kmh NW 11.0 mph17.7 kmh 30.18 in1022.0 mb 0.00 in0.0 mm 0.00 in0.0 mm 0.01 in0.3 mm
07:06 AM 49.8°F9.9°C 44.2°F6.8°C 81% 6.9 mph WNW11.1 kmh WNW 11.0 mph17.7 kmh 30.18 in1022.0 mb 0.00 in0.0 mm 0.00 in0.0 mm 0.01 in0.3 mm
07:05 AM 49.8°F9.9°C 44.2°F6.8°C 81% 6.9 mph NW11.1 kmh NW 8.1 mph13.0 kmh 30.18 in1022.0 mb 0.00 in0.0 mm 0.00 in0.0 mm 0.01 in0.3 mm
07:04 AM 49.8°F9.9°C 44.2°F6.8°C 81% 6.9 mph NW11.1 kmh NW 13.0 mph20.9 kmh 30.17 in1021.7 mb 0.00 in0.0 mm 0.00 in0.0 mm 0.01 in0.3 mm
07:03 AM 50.0°F10.0°C 44.4°F6.9°C 81% 6.9 mph NW11.1 kmh NW 10.1 mph16.3 kmh 30.17 in1021.7 mb 0.00 in0.0 mm 0.00 in0.0 mm 0.01 in0.3 mm
07:02 AM 50.0°F10.0°C 44.4°F6.9°C 81% 8.1 mph NW13.0 kmh NW 6.0 mph9.7 kmh 30.17 in1021.7 mb 0.00 in0.0 mm 0.00 in0.0 mm 0.01 in0.3 mm
07:01 AM 50.0°F10.0°C 44.1°F6.7°C 80% 8.1 mph NW13.0 kmh NW 8.9 mph14.3 kmh 30.17 in1021.7 mb 0.00 in0.0 mm 0.00 in0.0 mm 0.01 in0.3 mm
07:00 AM 50.2°F10.1°C 44.2°F6.8°C 80% 8.1 mph NW13.0 kmh NW 8.9 mph14.3 kmh 30.17 in1021.7 mb 0.00 in0.0 mm 0.00 in0.0 mm 0.01 in0.3 mm
06:58 AM 50.2°F10.1°C 44.2°F6.8°C 80% 8.1 mph NW13.0 kmh NW 11.0 mph17.7 kmh 30.17 in1021.7 mb 0.00 in0.0 mm 0.00 in0.0 mm 0.01 in0.3 mm
06:57 AM 50.4°F10.2°C 45.1°F7.3°C 82% 6.9 mph NW11.1 kmh NW 10.1 mph16.3 kmh 30.17 in1021.7 mb 0.00 in0.0 mm 0.00 in0.0 mm 0.01 in0.3 mm
06:56 AM 50.2°F10.1°C 44.6°F7.0°C 81% 6.9 mph NW11.1 kmh NW 11.0 mph17.7 kmh 30.17 in1021.7 mb 0.00 in0.0 mm 0.00 in0.0 mm 0.01 in0.3 mm
06:55 AM 50.4°F10.2°C 44.8°F7.1°C 81% 6.9 mph NW11.1 kmh NW 8.9 mph14.3 kmh 30.17 in1021.7 mb 0.00 in0.0 mm 0.00 in0.0 mm 0.01 in0.3 mm
06:54 AM 50.4°F10.2°C 44.8°F7.1°C 81% 6.9 mph NW11.1 kmh NW 8.9 mph14.3 kmh 30.16 in1021.3 mb 0.00 in0.0 mm 0.00 in0.0 mm 0.01 in0.3 mm
06:53 AM 50.4°F10.2°C 45.1°F7.3°C 82% 6.9 mph NW11.1 kmh NW 11.0 mph17.7 kmh 30.17 in1021.7 mb 0.00 in0.0 mm 0.00 in0.0 mm 0.01 in0.3 mm
06:52 AM 50.4°F10.2°C 45.1°F7.3°C 82% 6.9 mph NW11.1 kmh NW 11.0 mph17.7 kmh 30.16 in1021.3 mb 0.00 in0.0 mm 0.00 in0.0 mm 0.01 in0.3 mm
06:51 AM 50.4°F10.2°C 44.8°F7.1°C 81% 6.9 mph NW11.1 kmh NW 10.1 mph16.3 kmh 30.17 in1021.7 mb 0.00 in0.0 mm 0.00 in0.0 mm 0.01 in0.3 mm
06:50 AM 50.4°F10.2°C 44.8°F7.1°C 81% 6.9 mph NW11.1 kmh NW 8.9 mph14.3 kmh 30.17 in1021.7 mb 0.00 in0.0 mm 0.00 in0.0 mm 0.01 in0.3 mm
06:49 AM 50.5°F10.3°C 45.0°F7.2°C 81% 6.9 mph NW11.1 kmh NW 8.9 mph14.3 kmh 30.16 in1021.3 mb 0.00 in0.0 mm 0.00 in0.0 mm 0.01 in0.3 mm
06:48 AM 50.5°F10.3°C 45.3°F7.4°C 82% 6.9 mph NW11.1 kmh NW 4.9 mph7.9 kmh 30.16 in1021.3 mb 0.00 in0.0 mm 0.00 in0.0 mm 0.01 in0.3 mm
06:46 AM 50.5°F10.3°C 45.0°F7.2°C 81% 8.1 mph NW13.0 kmh NW 14.0 mph22.5 kmh 30.16 in1021.3 mb 0.00 in0.0 mm 0.00 in0.0 mm 0.01 in0.3 mm
06:45 AM 50.5°F10.3°C 45.3°F7.4°C 82% 6.9 mph NW11.1 kmh NW 12.1 mph19.5 kmh 30.16 in1021.3 mb 0.00 in0.0 mm 0.00 in0.0 mm 0.01 in0.3 mm
06:44 AM 50.5°F10.3°C 45.0°F7.2°C 81% 6.9 mph NW11.1 kmh NW 8.9 mph14.3 kmh 30.16 in1021.3 mb 0.00 in0.0 mm 0.00 in0.0 mm 0.01 in0.3 mm
06:43 AM 50.5°F10.3°C 45.0°F7.2°C 81% 6.9 mph NW11.1 kmh NW 12.1 mph19.5 kmh 30.16 in1021.3 mb 0.00 in0.0 mm 0.00 in0.0 mm 0.01 in0.3 mm
06:42 AM 50.5°F10.3°C 45.0°F7.2°C 81% 6.9 mph NW11.1 kmh NW 8.9 mph14.3 kmh 30.16 in1021.3 mb 0.00 in0.0 mm 0.00 in0.0 mm 0.01 in0.3 mm
06:41 AM 50.5°F10.3°C 45.3°F7.4°C 82% 6.9 mph NW11.1 kmh NW 11.0 mph17.7 kmh 30.16 in1021.3 mb 0.00 in0.0 mm 0.00 in0.0 mm 0.01 in0.3 mm
06:39 AM 50.7°F10.4°C 45.5°F7.5°C 82% 6.9 mph NW11.1 kmh NW 4.0 mph6.4 kmh 30.16 in1021.3 mb 0.00 in0.0 mm 0.00 in0.0 mm 0.01 in0.3 mm
06:38 AM 50.7°F10.4°C 45.7°F7.6°C 83% 6.9 mph NW11.1 kmh NW 8.9 mph14.3 kmh 30.16 in1021.3 mb 0.00 in0.0 mm 0.00 in0.0 mm 0.01 in0.3 mm
06:37 AM 50.7°F10.4°C 45.5°F7.5°C 82% 6.9 mph NW11.1 kmh NW 10.1 mph16.3 kmh 30.16 in1021.3 mb 0.00 in0.0 mm 0.00 in0.0 mm 0.01 in0.3 mm
06:36 AM 50.7°F10.4°C 45.7°F7.6°C 83% 6.9 mph NW11.1 kmh NW 8.1 mph13.0 kmh 30.16 in1021.3 mb 0.00 in0.0 mm 0.00 in0.0 mm 0.01 in0.3 mm
06:35 AM 50.5°F10.3°C 45.3°F7.4°C 82% 6.0 mph NNW9.7 kmh NNW 12.1 mph19.5 kmh 30.16 in1021.3 mb 0.00 in0.0 mm 0.00 in0.0 mm 0.01 in0.3 mm
06:34 AM 50.5°F10.3°C 45.3°F7.4°C 82% 6.0 mph NW9.7 kmh NW 8.9 mph14.3 kmh 30.16 in1021.3 mb 0.00 in0.0 mm 0.00 in0.0 mm 0.01 in0.3 mm
06:32 AM 50.5°F10.3°C 45.0°F7.2°C 81% 6.0 mph NW9.7 kmh NW 12.1 mph19.5 kmh 30.16 in1021.3 mb 0.00 in0.0 mm 0.00 in0.0 mm 0.01 in0.3 mm
06:31 AM 50.5°F10.3°C 45.0°F7.2°C 81% 4.9 mph NW7.9 kmh NW 8.1 mph13.0 kmh 30.15 in1021.0 mb 0.00 in0.0 mm 0.00 in0.0 mm 0.01 in0.3 mm
06:30 AM 50.5°F10.3°C 45.0°F7.2°C 81% 4.9 mph NW7.9 kmh NW 11.0 mph17.7 kmh 30.16 in1021.3 mb 0.00 in0.0 mm 0.00 in0.0 mm 0.01 in0.3 mm
06:29 AM 50.7°F10.4°C 45.5°F7.5°C 82% 4.9 mph NW7.9 kmh NW 6.0 mph9.7 kmh 30.16 in1021.3 mb 0.00 in0.0 mm 0.00 in0.0 mm 0.01 in0.3 mm
06:28 AM 50.7°F10.4°C 45.1°F7.3°C 81% 6.0 mph NW9.7 kmh NW 8.1 mph13.0 kmh 30.15 in1021.0 mb 0.00 in0.0 mm 0.00 in0.0 mm 0.01 in0.3 mm
06:27 AM 50.7°F10.4°C 45.1°F7.3°C 81% 6.0 mph NW9.7 kmh NW 8.9 mph14.3 kmh 30.15 in1021.0 mb 0.00 in0.0 mm 0.00 in0.0 mm 0.01 in0.3 mm
06:25 AM 50.9°F10.5°C 45.3°F7.4°C 81% 6.0 mph NW9.7 kmh NW 6.0 mph9.7 kmh 30.15 in1021.0 mb 0.00 in0.0 mm 0.00 in0.0 mm 0.01 in0.3 mm
06:24 AM 50.9°F10.5°C 45.3°F7.4°C 81% 6.0 mph WNW9.7 kmh WNW 4.9 mph7.9 kmh 30.15 in1021.0 mb 0.00 in0.0 mm 0.00 in0.0 mm 0.01 in0.3 mm
06:23 AM 51.1°F10.6°C 45.5°F7.5°C 81% 6.9 mph NW11.1 kmh NW 6.9 mph11.1 kmh 30.15 in1021.0 mb 0.00 in0.0 mm 0.00 in0.0 mm 0.01 in0.3 mm
06:22 AM 51.1°F10.6°C 45.5°F7.5°C 81% 6.9 mph NW11.1 kmh NW 8.1 mph13.0 kmh 30.15 in1021.0 mb 0.00 in0.0 mm 0.00 in0.0 mm 0.01 in0.3 mm
06:21 AM 51.1°F10.6°C 45.5°F7.5°C 81% 6.9 mph W11.1 kmh W 6.9 mph11.1 kmh 30.15 in1021.0 mb 0.00 in0.0 mm 0.00 in0.0 mm 0.01 in0.3 mm
06:20 AM 51.3°F10.7°C 45.7°F7.6°C 81% 6.9 mph NW11.1 kmh NW 8.1 mph13.0 kmh 30.15 in1021.0 mb 0.00 in0.0 mm 0.00 in0.0 mm 0.01 in0.3 mm
06:19 AM 51.3°F10.7°C 45.3°F7.4°C 80% 6.9 mph NW11.1 kmh NW 11.0 mph17.7 kmh 30.15 in1021.0 mb 0.00 in0.0 mm 0.00 in0.0 mm 0.01 in0.3 mm
06:17 AM 51.3°F10.7°C 45.7°F7.6°C 81% 6.0 mph NW9.7 kmh NW 10.1 mph16.3 kmh 30.15 in1021.0 mb 0.00 in0.0 mm 0.00 in0.0 mm 0.01 in0.3 mm
06:16 AM 51.4°F10.8°C 45.9°F7.7°C 81% 6.0 mph NW9.7 kmh NW 8.9 mph14.3 kmh 30.15 in1021.0 mb 0.00 in0.0 mm 0.00 in0.0 mm 0.01 in0.3 mm
06:15 AM 51.4°F10.8°C 46.2°F7.9°C 82% 6.0 mph NW9.7 kmh NW 8.9 mph14.3 kmh 30.14 in1020.7 mb 0.00 in0.0 mm 0.00 in0.0 mm 0.01 in0.3 mm
06:14 AM 51.4°F10.8°C 46.2°F7.9°C 82% 6.0 mph NW9.7 kmh NW 11.0 mph17.7 kmh 30.15 in1021.0 mb 0.00 in0.0 mm 0.00 in0.0 mm 0.01 in0.3 mm
06:13 AM 51.4°F10.8°C 45.9°F7.7°C 81% 6.9 mph W11.1 kmh W 8.9 mph14.3 kmh 30.14 in1020.7 mb 0.00 in0.0 mm 0.00 in0.0 mm 0.01 in0.3 mm
06:12 AM 51.6°F10.9°C 46.0°F7.8°C 81% 6.9 mph NW11.1 kmh NW 10.1 mph16.3 kmh 30.14 in1020.7 mb 0.00 in0.0 mm 0.00 in0.0 mm 0.01 in0.3 mm
06:11 AM 51.6°F10.9°C 46.0°F7.8°C 81% 6.9 mph WNW11.1 kmh WNW 10.1 mph16.3 kmh 30.14 in1020.7 mb 0.00 in0.0 mm 0.00 in0.0 mm 0.01 in0.3 mm
06:09 AM 51.8°F11.0°C 46.2°F7.9°C 81% 8.1 mph NW13.0 kmh NW 4.9 mph7.9 kmh 30.14 in1020.7 mb 0.00 in0.0 mm 0.00 in0.0 mm 0.01 in0.3 mm
06:08 AM 52.0°F11.1°C 46.4°F8.0°C 81% 8.1 mph NW13.0 kmh NW 8.1 mph13.0 kmh 30.14 in1020.7 mb 0.00 in0.0 mm 0.00 in0.0 mm 0.01 in0.3 mm
06:07 AM 52.0°F11.1°C 46.4°F8.0°C 81% 8.1 mph NW13.0 kmh NW 8.1 mph13.0 kmh 30.14 in1020.7 mb 0.00 in0.0 mm 0.00 in0.0 mm 0.01 in0.3 mm
06:06 AM 52.2°F11.2°C 46.6°F8.1°C 81% 8.9 mph NW14.3 kmh NW 8.1 mph13.0 kmh 30.14 in1020.7 mb 0.00 in0.0 mm 0.00 in0.0 mm 0.01 in0.3 mm
06:05 AM 52.2°F11.2°C 46.8°F8.2°C 82% 8.9 mph NW14.3 kmh NW 10.1 mph16.3 kmh 30.14 in1020.7 mb 0.00 in0.0 mm 0.00 in0.0 mm 0.01 in0.3 mm
06:04 AM 52.2°F11.2°C 46.8°F8.2°C 82% 8.1 mph NW13.0 kmh NW 14.0 mph22.5 kmh 30.14 in1020.7 mb 0.00 in0.0 mm 0.00 in0.0 mm 0.01 in0.3 mm
06:02 AM 52.2°F11.2°C 46.6°F8.1°C 81% 8.1 mph NW13.0 kmh NW 12.1 mph19.5 kmh 30.14 in1020.7 mb 0.00 in0.0 mm 0.00 in0.0 mm 0.01 in0.3 mm
06:01 AM 52.2°F11.2°C 46.8°F8.2°C 82% 8.1 mph NW13.0 kmh NW 13.0 mph20.9 kmh 30.14 in1020.7 mb 0.00 in0.0 mm 0.00 in0.0 mm 0.01 in0.3 mm
06:00 AM 52.2°F11.2°C 46.8°F8.2°C 82% 8.9 mph NW14.3 kmh NW 11.0 mph17.7 kmh 30.14 in1020.7 mb 0.00 in0.0 mm 0.00 in0.0 mm 0.01 in0.3 mm
05:59 AM 52.2°F11.2°C 46.6°F8.1°C 81% 8.9 mph NW14.3 kmh NW 8.9 mph14.3 kmh 30.14 in1020.7 mb 0.00 in0.0 mm 0.00 in0.0 mm 0.01 in0.3 mm
05:58 AM 52.2°F11.2°C 46.6°F8.1°C 81% 8.9 mph WNW14.3 kmh WNW 8.1 mph13.0 kmh 30.14 in1020.7 mb 0.00 in0.0 mm 0.00 in0.0 mm 0.01 in0.3 mm
05:57 AM 52.3°F11.3°C 46.8°F8.2°C 81% 8.9 mph NW14.3 kmh NW 8.9 mph14.3 kmh 30.14 in1020.7 mb 0.00 in0.0 mm 0.00 in0.0 mm 0.01 in0.3 mm
05:56 AM 52.3°F11.3°C 46.8°F8.2°C 81% 8.9 mph WNW14.3 kmh WNW 10.1 mph16.3 kmh 30.14 in1020.7 mb 0.00 in0.0 mm 0.00 in0.0 mm 0.01 in0.3 mm
05:55 AM 52.3°F11.3°C 46.8°F8.2°C 81% 10.1 mph NW16.3 kmh NW 11.0 mph17.7 kmh 30.14 in1020.7 mb 0.00 in0.0 mm 0.00 in0.0 mm 0.01 in0.3 mm
05:53 AM 52.5°F11.4°C 46.9°F8.3°C 81% 10.1 mph NW16.3 kmh NW 12.1 mph19.5 kmh 30.13 in1020.3 mb 0.00 in0.0 mm 0.00 in0.0 mm 0.01 in0.3 mm
05:52 AM 52.5°F11.4°C 47.1°F8.4°C 82% 8.9 mph NW14.3 kmh NW 8.9 mph14.3 kmh 30.13 in1020.3 mb 0.00 in0.0 mm 0.00 in0.0 mm 0.01 in0.3 mm
05:51 AM 52.7°F11.5°C 47.1°F8.4°C 81% 8.9 mph WNW14.3 kmh WNW 14.1 mph22.7 kmh 30.13 in1020.3 mb 0.00 in0.0 mm 0.00 in0.0 mm 0.01 in0.3 mm
05:50 AM 52.9°F11.6°C 47.5°F8.6°C 82% 8.1 mph NW13.0 kmh NW 12.1 mph19.5 kmh 30.13 in1020.3 mb 0.00 in0.0 mm 0.00 in0.0 mm 0.01 in0.3 mm
05:49 AM 52.9°F11.6°C 47.8°F8.8°C 83% 8.1 mph NW13.0 kmh NW 12.1 mph19.5 kmh 30.14 in1020.7 mb 0.00 in0.0 mm 0.00 in0.0 mm 0.01 in0.3 mm
05:48 AM 52.9°F11.6°C 47.5°F8.6°C 82% 8.1 mph NW13.0 kmh NW 11.0 mph17.7 kmh 30.13 in1020.3 mb 0.00 in0.0 mm 0.00 in0.0 mm 0.01 in0.3 mm
05:46 AM 52.9°F11.6°C 47.8°F8.8°C 83% 8.1 mph NW13.0 kmh NW 12.1 mph19.5 kmh 30.13 in1020.3 mb 0.00 in0.0 mm 0.00 in0.0 mm 0.01 in0.3 mm
05:45 AM 52.9°F11.6°C 47.8°F8.8°C 83% 8.1 mph NNW13.0 kmh NNW 12.1 mph19.5 kmh 30.13 in1020.3 mb 0.00 in0.0 mm 0.00 in0.0 mm 0.01 in0.3 mm
05:44 AM 52.9°F11.6°C 47.8°F8.8°C 83% 6.9 mph NW11.1 kmh NW 13.0 mph20.9 kmh 30.13 in1020.3 mb 0.00 in0.0 mm 0.00 in0.0 mm 0.01 in0.3 mm
05:43 AM 52.9°F11.6°C 48.2°F9.0°C 84% 8.1 mph NW13.0 kmh NW 8.1 mph13.0 kmh 30.13 in1020.3 mb 0.00 in0.0 mm 0.00 in0.0 mm 0.01 in0.3 mm
05:42 AM 53.1°F11.7°C 48.0°F8.9°C 83% 8.1 mph WNW13.0 kmh WNW 8.9 mph14.3 kmh 30.13 in1020.3 mb 0.00 in0.0 mm 0.00 in0.0 mm 0.01 in0.3 mm
05:41 AM 53.1°F11.7°C 48.4°F9.1°C 84% 8.1 mph NW13.0 kmh NW 10.1 mph16.3 kmh 30.13 in1020.3 mb 0.00 in0.0 mm 0.00 in0.0 mm 0.01 in0.3 mm
05:40 AM 53.1°F11.7°C 48.0°F8.9°C 83% 8.1 mph NW13.0 kmh NW 10.1 mph16.3 kmh 30.13 in1020.3 mb 0.00 in0.0 mm 0.00 in0.0 mm 0.01 in0.3 mm
05:39 AM 53.1°F11.7°C 47.7°F8.7°C 82% 8.1 mph NW13.0 kmh NW 12.1 mph19.5 kmh 30.13 in1020.3 mb 0.00 in0.0 mm 0.00 in0.0 mm 0.01 in0.3 mm
05:37 AM 53.1°F11.7°C 48.0°F8.9°C 83% 8.1 mph NW13.0 kmh NW 12.1 mph19.5 kmh 30.13 in1020.3 mb 0.00 in0.0 mm 0.00 in0.0 mm 0.01 in0.3 mm
05:36 AM 53.1°F11.7°C 48.0°F8.9°C 83% 8.1 mph NW13.0 kmh NW 11.0 mph17.7 kmh 30.13 in1020.3 mb 0.00 in0.0 mm 0.00 in0.0 mm 0.01 in0.3 mm
05:35 AM 53.1°F11.7°C 48.0°F8.9°C 83% 8.1 mph WNW13.0 kmh WNW 10.1 mph16.3 kmh 30.13 in1020.3 mb 0.00 in0.0 mm 0.00 in0.0 mm 0.01 in0.3 mm
05:34 AM 53.1°F11.7°C 48.0°F8.9°C 83% 8.1 mph WNW13.0 kmh WNW 11.0 mph17.7 kmh 30.13 in1020.3 mb 0.00 in0.0 mm 0.00 in0.0 mm 0.01 in0.3 mm
05:33 AM 53.1°F11.7°C 48.0°F8.9°C 83% 8.1 mph WNW13.0 kmh WNW 12.1 mph19.5 kmh 30.12 in1020.0 mb 0.00 in0.0 mm 0.00 in0.0 mm 0.01 in0.3 mm
05:32 AM 53.1°F11.7°C 48.0°F8.9°C 83% 8.1 mph NW13.0 kmh NW 12.1 mph19.5 kmh 30.13 in1020.3 mb 0.00 in0.0 mm 0.00 in0.0 mm 0.01 in0.3 mm
05:31 AM 53.2°F11.8°C 48.2°F9.0°C 83% 8.1 mph NNW13.0 kmh NNW 8.9 mph14.3 kmh 30.13 in1020.3 mb 0.00 in0.0 mm 0.00 in0.0 mm 0.01 in0.3 mm
05:30 AM 53.2°F11.8°C 48.6°F9.2°C 84% 8.1 mph WNW13.0 kmh WNW 10.1 mph16.3 kmh 30.13 in1020.3 mb 0.00 in0.0 mm 0.00 in0.0 mm 0.01 in0.3 mm
05:29 AM 53.2°F11.8°C 48.2°F9.0°C 83% 6.9 mph NW11.1 kmh NW 8.9 mph14.3 kmh 30.13 in1020.3 mb 0.00 in0.0 mm 0.00 in0.0 mm 0.01 in0.3 mm
05:28 AM 53.2°F11.8°C 48.6°F9.2°C 84% 6.9 mph NW11.1 kmh NW 8.9 mph14.3 kmh 30.12 in1020.0 mb 0.00 in0.0 mm 0.00 in0.0 mm 0.01 in0.3 mm
05:27 AM 53.4°F11.9°C 48.4°F9.1°C 83% 6.9 mph NW11.1 kmh NW 11.0 mph17.7 kmh 30.12 in1020.0 mb 0.00 in0.0 mm 0.00 in0.0 mm 0.01 in0.3 mm
05:25 AM 53.2°F11.8°C 48.6°F9.2°C 84% 6.9 mph NW11.1 kmh NW 8.9 mph14.3 kmh 30.12 in1020.0 mb 0.00 in0.0 mm 0.00 in0.0 mm 0.01 in0.3 mm
05:24 AM 53.2°F11.8°C 48.2°F9.0°C 83% 6.9 mph WNW11.1 kmh WNW 14.0 mph22.5 kmh 30.12 in1020.0 mb 0.00 in0.0 mm 0.00 in0.0 mm 0.01 in0.3 mm
05:23 AM 53.2°F11.8°C 47.8°F8.8°C 82% 6.9 mph NW11.1 kmh NW 12.1 mph19.5 kmh 30.13 in1020.3 mb 0.00 in0.0 mm 0.00 in0.0 mm 0.01 in0.3 mm
05:22 AM 53.4°F11.9°C 48.4°F9.1°C 83% 6.9 mph NW11.1 kmh NW 11.0 mph17.7 kmh 30.13 in1020.3 mb 0.00 in0.0 mm 0.00 in0.0 mm 0.01 in0.3 mm
05:21 AM 53.4°F11.9°C 48.4°F9.1°C 83% 6.9 mph NW11.1 kmh NW 12.0 mph19.3 kmh 30.12 in1020.0 mb 0.00 in0.0 mm 0.00 in0.0 mm 0.01 in0.3 mm
05:20 AM 53.4°F11.9°C 48.0°F8.9°C 82% 6.9 mph NW11.1 kmh NW 6.9 mph11.1 kmh 30.12 in1020.0 mb 0.00 in0.0 mm 0.00 in0.0 mm 0.01 in0.3 mm
05:19 AM 53.4°F11.9°C 48.0°F8.9°C 82% 8.1 mph NW13.0 kmh NW 8.1 mph13.0 kmh 30.13 in1020.3 mb 0.00 in0.0 mm 0.00 in0.0 mm 0.01 in0.3 mm
05:18 AM 53.4°F11.9°C 48.0°F8.9°C 82% 8.1 mph NW13.0 kmh NW 8.9 mph14.3 kmh 30.13 in1020.3 mb 0.00 in0.0 mm 0.00 in0.0 mm 0.01 in0.3 mm
05:17 AM 53.6°F12.0°C 48.6°F9.2°C 83% 8.1 mph NW13.0 kmh NW 11.0 mph17.7 kmh 30.13 in1020.3 mb 0.00 in0.0 mm 0.00 in0.0 mm 0.01 in0.3 mm
05:16 AM 53.8°F12.1°C 48.7°F9.3°C 83% 8.1 mph NW13.0 kmh NW 8.1 mph13.0 kmh 30.13 in1020.3 mb 0.00 in0.0 mm 0.00 in0.0 mm 0.01 in0.3 mm
05:15 AM 53.8°F12.1°C 48.4°F9.1°C 82% 8.1 mph NW13.0 kmh NW 10.1 mph16.3 kmh 30.13 in1020.3 mb 0.00 in0.0 mm 0.00 in0.0 mm 0.01 in0.3 mm
05:14 AM 53.8°F12.1°C 48.4°F9.1°C 82% 8.1 mph NW13.0 kmh NW 11.0 mph17.7 kmh 30.12 in1020.0 mb 0.00 in0.0 mm 0.00 in0.0 mm 0.01 in0.3 mm
05:12 AM 54.0°F12.2°C 48.9°F9.4°C 83% 8.9 mph NW14.3 kmh NW 10.1 mph16.3 kmh 30.11 in1019.6 mb 0.00 in0.0 mm 0.00 in0.0 mm 0.01 in0.3 mm
05:11 AM 54.0°F12.2°C 48.6°F9.2°C 82% 8.9 mph NW14.3 kmh NW 12.1 mph19.5 kmh 30.11 in1019.6 mb 0.00 in0.0 mm 0.00 in0.0 mm 0.01 in0.3 mm
05:10 AM 54.0°F12.2°C 48.6°F9.2°C 82% 8.9 mph NW14.3 kmh NW 10.1 mph16.3 kmh 30.11 in1019.6 mb 0.00 in0.0 mm 0.00 in0.0 mm 0.01 in0.3 mm
05:09 AM 54.0°F12.2°C 48.9°F9.4°C 83% 8.9 mph NW14.3 kmh NW 8.9 mph14.3 kmh 30.11 in1019.6 mb 0.00 in0.0 mm 0.00 in0.0 mm 0.01 in0.3 mm
05:08 AM 54.0°F12.2°C 48.6°F9.2°C 82% 8.9 mph NW14.3 kmh NW 10.1 mph16.3 kmh 30.11 in1019.6 mb 0.00 in0.0 mm 0.00 in0.0 mm 0.01 in0.3 mm
05:07 AM 54.0°F12.2°C 48.6°F9.2°C 82% 10.1 mph NW16.3 kmh NW 10.1 mph16.3 kmh 30.11 in1019.6 mb 0.00 in0.0 mm 0.00 in0.0 mm 0.01 in0.3 mm
05:05 AM 54.0°F12.2°C 48.6°F9.2°C 82% 10.1 mph NW16.3 kmh NW 12.1 mph19.5 kmh 30.11 in1019.6 mb 0.00 in0.0 mm 0.00 in0.0 mm 0.01 in0.3 mm
05:04 AM 54.0°F12.2°C 48.6°F9.2°C 82% 10.1 mph NNW16.3 kmh NNW 12.1 mph19.5 kmh 30.11 in1019.6 mb 0.00 in0.0 mm 0.00 in0.0 mm 0.01 in0.3 mm
05:03 AM 54.0°F12.2°C 48.6°F9.2°C 82% 10.1 mph NW16.3 kmh NW 16.0 mph25.7 kmh 30.11 in1019.6 mb 0.00 in0.0 mm 0.00 in0.0 mm 0.01 in0.3 mm
05:02 AM 54.0°F12.2°C 48.6°F9.2°C 82% 10.1 mph NW16.3 kmh NW 13.0 mph20.9 kmh 30.11 in1019.6 mb 0.00 in0.0 mm 0.00 in0.0 mm 0.01 in0.3 mm
05:01 AM 54.0°F12.2°C 48.2°F9.0°C 81% 10.1 mph NW16.3 kmh NW 11.0 mph17.7 kmh 30.11 in1019.6 mb 0.00 in0.0 mm 0.00 in0.0 mm 0.01 in0.3 mm
05:00 AM 54.0°F12.2°C 48.6°F9.2°C 82% 11.0 mph NNW17.7 kmh NNW 13.0 mph20.9 kmh 30.11 in1019.6 mb 0.00 in0.0 mm 0.00 in0.0 mm 0.01 in0.3 mm
04:59 AM 54.0°F12.2°C 48.2°F9.0°C 81% 11.0 mph NW17.7 kmh NW 12.1 mph19.5 kmh 30.11 in1019.6 mb 0.00 in0.0 mm 0.00 in0.0 mm 0.01 in0.3 mm
04:58 AM 54.0°F12.2°C 48.0°F8.9°C 80% 11.0 mph NW17.7 kmh NW 15.0 mph24.1 kmh 30.11 in1019.6 mb 0.00 in0.0 mm 0.00 in0.0 mm 0.01 in0.3 mm
04:57 AM 54.1°F12.3°C 48.4°F9.1°C 81% 11.0 mph NW17.7 kmh NW 11.0 mph17.7 kmh 30.11 in1019.6 mb 0.00 in0.0 mm 0.00 in0.0 mm 0.01 in0.3 mm
04:56 AM 54.1°F12.3°C 48.4°F9.1°C 81% 12.1 mph NW19.5 kmh NW 13.0 mph20.9 kmh 30.11 in1019.6 mb 0.00 in0.0 mm 0.00 in0.0 mm 0.01 in0.3 mm
04:55 AM 54.1°F12.3°C 48.4°F9.1°C 81% 11.0 mph N17.7 kmh N 14.1 mph22.7 kmh 30.11 in1019.6 mb 0.00 in0.0 mm 0.00 in0.0 mm 0.01 in0.3 mm
04:54 AM 54.1°F12.3°C 48.0°F8.9°C 80% 11.0 mph NW17.7 kmh NW 16.1 mph25.9 kmh 30.11 in1019.6 mb 0.00 in0.0 mm 0.00 in0.0 mm 0.01 in0.3 mm
04:53 AM 54.1°F12.3°C 48.4°F9.1°C 81% 11.0 mph NW17.7 kmh NW 16.1 mph25.9 kmh 30.11 in1019.6 mb 0.00 in0.0 mm 0.00 in0.0 mm 0.01 in0.3 mm
04:52 AM 54.1°F12.3°C 48.7°F9.3°C 82% 11.0 mph NNW17.7 kmh NNW 13.0 mph20.9 kmh 30.11 in1019.6 mb 0.00 in0.0 mm 0.00 in0.0 mm 0.01 in0.3 mm
04:51 AM 54.0°F12.2°C 48.0°F8.9°C 80% 11.0 mph NW17.7 kmh NW 13.0 mph20.9 kmh 30.11 in1019.6 mb 0.00 in0.0 mm 0.00 in0.0 mm 0.01 in0.3 mm
04:49 AM 54.0°F12.2°C 48.0°F8.9°C 80% 11.0 mph NNW17.7 kmh NNW 13.0 mph20.9 kmh 30.11 in1019.6 mb 0.00 in0.0 mm 0.00 in0.0 mm 0.01 in0.3 mm
04:48 AM 54.1°F12.3°C 47.8°F8.8°C 79% 12.1 mph NW19.5 kmh NW 16.1 mph25.9 kmh 30.10 in1019.3 mb 0.00 in0.0 mm 0.00 in0.0 mm 0.01 in0.3 mm
04:47 AM 54.0°F12.2°C 47.7°F8.7°C 79% 12.1 mph NW19.5 kmh NW 19.0 mph30.6 kmh 30.11 in1019.6 mb 0.00 in0.0 mm 0.00 in0.0 mm 0.01 in0.3 mm
04:46 AM 54.1°F12.3°C 48.0°F8.9°C 80% 12.1 mph NW19.5 kmh NW 12.1 mph19.5 kmh 30.11 in1019.6 mb 0.00 in0.0 mm 0.00 in0.0 mm 0.01 in0.3 mm
04:45 AM 54.1°F12.3°C 48.0°F8.9°C 80% 12.1 mph NNW19.5 kmh NNW 12.1 mph19.5 kmh 30.11 in1019.6 mb 0.00 in0.0 mm 0.00 in0.0 mm 0.01 in0.3 mm
04:44 AM 54.1°F12.3°C 48.0°F8.9°C 80% 12.1 mph NW19.5 kmh NW 12.1 mph19.5 kmh 30.10 in1019.3 mb 0.00 in0.0 mm 0.00 in0.0 mm 0.01 in0.3 mm
04:43 AM 54.1°F12.3°C 48.0°F8.9°C 80% 12.1 mph NNW19.5 kmh NNW 15.0 mph24.1 kmh 30.10 in1019.3 mb 0.00 in0.0 mm 0.00 in0.0 mm 0.01 in0.3 mm
04:42 AM 54.1°F12.3°C 48.0°F8.9°C 80% 12.1 mph NW19.5 kmh NW 14.1 mph22.7 kmh 30.10 in1019.3 mb 0.00 in0.0 mm 0.00 in0.0 mm 0.01 in0.3 mm
04:41 AM 54.1°F12.3°C 47.8°F8.8°C 79% 12.1 mph NW19.5 kmh NW 14.1 mph22.7 kmh 30.10 in1019.3 mb 0.00 in0.0 mm 0.00 in0.0 mm 0.01 in0.3 mm
04:40 AM 54.1°F12.3°C 47.5°F8.6°C 78% 11.0 mph NW17.7 kmh NW 16.1 mph25.9 kmh 30.09 in1019.0 mb 0.00 in0.0 mm 0.00 in0.0 mm 0.01 in0.3 mm
04:39 AM 54.3°F12.4°C 48.2°F9.0°C 80% 11.0 mph NW17.7 kmh NW 17.9 mph28.8 kmh 30.09 in1019.0 mb 0.00 in0.0 mm 0.00 in0.0 mm 0.01 in0.3 mm
04:38 AM 54.3°F12.4°C 48.0°F8.9°C 79% 11.0 mph NW17.7 kmh NW 17.9 mph28.8 kmh 30.09 in1019.0 mb 0.00 in0.0 mm 0.00 in0.0 mm 0.01 in0.3 mm
04:37 AM 54.3°F12.4°C 48.2°F9.0°C 80% 11.0 mph NNW17.7 kmh NNW 16.1 mph25.9 kmh 30.09 in1019.0 mb 0.00 in0.0 mm 0.00 in0.0 mm 0.01 in0.3 mm
04:36 AM 54.3°F12.4°C 48.6°F9.2°C 81% 10.1 mph NW16.3 kmh NW 15.0 mph24.1 kmh 30.09 in1019.0 mb 0.00 in0.0 mm 0.00 in0.0 mm 0.01 in0.3 mm
04:35 AM 54.3°F12.4°C 48.6°F9.2°C 81% 10.1 mph NW16.3 kmh NW 17.0 mph27.4 kmh 30.09 in1019.0 mb 0.00 in0.0 mm 0.00 in0.0 mm 0.01 in0.3 mm
04:34 AM 54.3°F12.4°C 49.3°F9.6°C 83% 10.1 mph NNW16.3 kmh NNW 10.1 mph16.3 kmh 30.09 in1019.0 mb 0.00 in0.0 mm 0.00 in0.0 mm 0.01 in0.3 mm
04:33 AM 54.3°F12.4°C 49.3°F9.6°C 83% 10.1 mph NW16.3 kmh NW 12.1 mph19.5 kmh 30.09 in1019.0 mb 0.00 in0.0 mm 0.00 in0.0 mm 0.01 in0.3 mm
04:31 AM 54.3°F12.4°C 49.3°F9.6°C 83% 10.1 mph NNW16.3 kmh NNW 12.1 mph19.5 kmh 30.09 in1019.0 mb 0.00 in0.0 mm 0.00 in0.0 mm 0.01 in0.3 mm
04:30 AM 54.3°F12.4°C 49.3°F9.6°C 83% 10.1 mph NW16.3 kmh NW 15.0 mph24.1 kmh 30.09 in1019.0 mb 0.00 in0.0 mm 0.00 in0.0 mm 0.01 in0.3 mm
04:29 AM 54.3°F12.4°C 49.3°F9.6°C 83% 8.9 mph N14.3 kmh N 13.0 mph20.9 kmh 30.10 in1019.3 mb 0.00 in0.0 mm 0.00 in0.0 mm 0.01 in0.3 mm
04:28 AM 54.3°F12.4°C 49.3°F9.6°C 83% 8.9 mph NW14.3 kmh NW 16.1 mph25.9 kmh 30.10 in1019.3 mb 0.00 in0.0 mm 0.00 in0.0 mm 0.01 in0.3 mm
04:27 AM 54.3°F12.4°C 49.6°F9.8°C 84% 8.9 mph NW14.3 kmh NW 13.0 mph20.9 kmh 30.10 in1019.3 mb 0.00 in0.0 mm 0.00 in0.0 mm 0.01 in0.3 mm
04:26 AM 54.3°F12.4°C 49.8°F9.9°C 85% 8.9 mph NNW14.3 kmh NNW 11.0 mph17.7 kmh 30.10 in1019.3 mb 0.00 in0.0 mm 0.00 in0.0 mm 0.01 in0.3 mm
04:25 AM 54.3°F12.4°C 49.8°F9.9°C 85% 8.9 mph NW14.3 kmh NW 18.0 mph29.0 kmh 30.10 in1019.3 mb 0.00 in0.0 mm 0.00 in0.0 mm 0.01 in0.3 mm
04:24 AM 54.5°F12.5°C 49.8°F9.9°C 84% 8.9 mph NW14.3 kmh NW 16.0 mph25.7 kmh 30.10 in1019.3 mb 0.00 in0.0 mm 0.00 in0.0 mm 0.01 in0.3 mm
04:23 AM 54.5°F12.5°C 50.4°F10.2°C 86% 8.9 mph NW14.3 kmh NW 16.0 mph25.7 kmh 30.10 in1019.3 mb 0.00 in0.0 mm 0.00 in0.0 mm 0.01 in0.3 mm
04:22 AM 54.3°F12.4°C 50.5°F10.3°C 87% 8.1 mph WNW13.0 kmh WNW 10.1 mph16.3 kmh 30.10 in1019.3 mb 0.00 in0.0 mm 0.00 in0.0 mm 0.01 in0.3 mm
04:21 AM 54.3°F12.4°C 50.5°F10.3°C 87% 8.9 mph NW14.3 kmh NW 14.0 mph22.5 kmh 30.10 in1019.3 mb 0.00 in0.0 mm 0.00 in0.0 mm 0.01 in0.3 mm
04:19 AM 54.5°F12.5°C 50.4°F10.2°C 86% 8.9 mph NW14.3 kmh NW 12.1 mph19.5 kmh 30.10 in1019.3 mb 0.00 in0.0 mm 0.00 in0.0 mm 0.01 in0.3 mm
04:18 AM 54.3°F12.4°C 50.2°F10.1°C 86% 8.9 mph NW14.3 kmh NW 11.0 mph17.7 kmh 30.10 in1019.3 mb 0.00 in0.0 mm 0.00 in0.0 mm 0.01 in0.3 mm
04:17 AM 54.3°F12.4°C 50.2°F10.1°C 86% 8.9 mph NW14.3 kmh NW 11.0 mph17.7 kmh 30.10 in1019.3 mb 0.00 in0.0 mm 0.00 in0.0 mm 0.01 in0.3 mm
04:16 AM 54.3°F12.4°C 50.5°F10.3°C 87% 8.9 mph WNW14.3 kmh WNW 11.0 mph17.7 kmh 30.10 in1019.3 mb 0.00 in0.0 mm 0.00 in0.0 mm 0.01 in0.3 mm
04:15 AM 54.3°F12.4°C 50.5°F10.3°C 87% 8.1 mph NW13.0 kmh NW 11.0 mph17.7 kmh 30.10 in1019.3 mb 0.00 in0.0 mm 0.00 in0.0 mm 0.01 in0.3 mm
04:14 AM 54.3°F12.4°C 50.5°F10.3°C 87% 8.1 mph WNW13.0 kmh WNW 10.1 mph16.3 kmh 30.10 in1019.3 mb 0.00 in0.0 mm 0.00 in0.0 mm 0.01 in0.3 mm
04:13 AM 54.3°F12.4°C 50.5°F10.3°C 87% 8.1 mph NW13.0 kmh NW 11.0 mph17.7 kmh 30.10 in1019.3 mb 0.00 in0.0 mm 0.00 in0.0 mm 0.01 in0.3 mm
04:12 AM 54.3°F12.4°C 50.5°F10.3°C 87% 8.1 mph NW13.0 kmh NW 13.0 mph20.9 kmh 30.10 in1019.3 mb 0.00 in0.0 mm 0.00 in0.0 mm 0.01 in0.3 mm
04:10 AM 54.3°F12.4°C 50.5°F10.3°C 87% 6.9 mph NW11.1 kmh NW 15.0 mph24.1 kmh 30.10 in1019.3 mb 0.00 in0.0 mm 0.00 in0.0 mm 0.01 in0.3 mm
04:09 AM 54.3°F12.4°C 50.9°F10.5°C 88% 6.0 mph NW9.7 kmh NW 15.0 mph24.1 kmh 30.09 in1019.0 mb 0.00 in0.0 mm 0.00 in0.0 mm 0.01 in0.3 mm
04:08 AM 54.5°F12.5°C 51.1°F10.6°C 88% 6.0 mph NW9.7 kmh NW 11.0 mph17.7 kmh 30.09 in1019.0 mb 0.00 in0.0 mm 0.00 in0.0 mm 0.01 in0.3 mm
04:07 AM 54.5°F12.5°C 51.3°F10.7°C 89% 6.0 mph NW9.7 kmh NW 11.0 mph17.7 kmh 30.10 in1019.3 mb 0.00 in0.0 mm 0.00 in0.0 mm 0.01 in0.3 mm
04:06 AM 54.3°F12.4°C 51.1°F10.6°C 89% 6.0 mph WNW9.7 kmh WNW 8.9 mph14.3 kmh 30.10 in1019.3 mb 0.00 in0.0 mm 0.00 in0.0 mm 0.01 in0.3 mm
04:05 AM 54.5°F12.5°C 51.3°F10.7°C 89% 6.0 mph WNW9.7 kmh WNW 8.9 mph14.3 kmh 30.10 in1019.3 mb 0.00 in0.0 mm 0.00 in0.0 mm 0.01 in0.3 mm
04:04 AM 54.3°F12.4°C 50.9°F10.5°C 88% 6.0 mph W9.7 kmh W 11.0 mph17.7 kmh 30.11 in1019.6 mb 0.00 in0.0 mm 0.00 in0.0 mm 0.01 in0.3 mm
04:03 AM 54.5°F12.5°C 51.3°F10.7°C 89% 6.0 mph WNW9.7 kmh WNW 8.9 mph14.3 kmh 30.11 in1019.6 mb 0.00 in0.0 mm 0.00 in0.0 mm 0.01 in0.3 mm
04:02 AM 54.7°F12.6°C 51.3°F10.7°C 88% 6.0 mph NW9.7 kmh NW 6.0 mph9.7 kmh 30.11 in1019.6 mb 0.00 in0.0 mm 0.00 in0.0 mm 0.01 in0.3 mm
04:01 AM 54.5°F12.5°C 51.3°F10.7°C 89% 6.0 mph NW9.7 kmh NW 6.9 mph11.1 kmh 30.11 in1019.6 mb 0.00 in0.0 mm 0.00 in0.0 mm 0.01 in0.3 mm
03:59 AM 54.7°F12.6°C 51.4°F10.8°C 89% 6.0 mph NW9.7 kmh NW 8.9 mph14.3 kmh 30.10 in1019.3 mb 0.00 in0.0 mm 0.00 in0.0 mm 0.01 in0.3 mm
03:58 AM 54.7°F12.6°C 51.4°F10.8°C 89% 6.0 mph NW9.7 kmh NW 4.9 mph7.9 kmh 30.08 in1018.6 mb 0.00 in0.0 mm 0.00 in0.0 mm 0.01 in0.3 mm
03:57 AM 54.7°F12.6°C 51.4°F10.8°C 89% 6.9 mph NW11.1 kmh NW 8.9 mph14.3 kmh 30.09 in1019.0 mb 0.00 in0.0 mm 0.00 in0.0 mm 0.01 in0.3 mm
03:56 AM 54.7°F12.6°C 51.4°F10.8°C 89% 6.9 mph NW11.1 kmh NW 8.1 mph13.0 kmh 30.09 in1019.0 mb 0.00 in0.0 mm 0.00 in0.0 mm 0.01 in0.3 mm
03:55 AM 54.7°F12.6°C 51.4°F10.8°C 89% 6.9 mph WNW11.1 kmh WNW 8.1 mph13.0 kmh 30.09 in1019.0 mb 0.00 in0.0 mm 0.00 in0.0 mm 0.01 in0.3 mm
03:54 AM 54.7°F12.6°C 51.4°F10.8°C 89% 6.0 mph NW9.7 kmh NW 10.1 mph16.3 kmh 30.08 in1018.6 mb 0.00 in0.0 mm 0.00 in0.0 mm 0.01 in0.3 mm
03:53 AM 54.7°F12.6°C 51.4°F10.8°C 89% 6.0 mph NW9.7 kmh NW 8.9 mph14.3 kmh 30.09 in1019.0 mb 0.00 in0.0 mm 0.00 in0.0 mm 0.01 in0.3 mm
03:52 AM 54.7°F12.6°C 51.3°F10.7°C 88% 6.0 mph NNW9.7 kmh NNW 10.0 mph16.1 kmh 30.09 in1019.0 mb 0.00 in0.0 mm 0.00 in0.0 mm 0.01 in0.3 mm
03:51 AM 54.7°F12.6°C 51.3°F10.7°C 88% 6.0 mph NW9.7 kmh NW 8.9 mph14.3 kmh 30.10 in1019.3 mb 0.00 in0.0 mm 0.00 in0.0 mm 0.01 in0.3 mm
03:49 AM 54.7°F12.6°C 51.3°F10.7°C 88% 6.0 mph NW9.7 kmh NW 8.1 mph13.0 kmh 30.11 in1019.6 mb 0.00 in0.0 mm 0.00 in0.0 mm 0.01 in0.3 mm
03:48 AM 54.9°F12.7°C 51.4°F10.8°C 88% 6.0 mph WNW9.7 kmh WNW 8.9 mph14.3 kmh 30.10 in1019.3 mb 0.00 in0.0 mm 0.00 in0.0 mm 0.01 in0.3 mm
03:47 AM 54.9°F12.7°C 51.4°F10.8°C 88% 6.0 mph NW9.7 kmh NW 8.9 mph14.3 kmh 30.09 in1019.0 mb 0.00 in0.0 mm 0.00 in0.0 mm 0.01 in0.3 mm
03:46 AM 54.9°F12.7°C 51.6°F10.9°C 89% 4.9 mph NW7.9 kmh NW 6.9 mph11.1 kmh 30.09 in1019.0 mb 0.00 in0.0 mm 0.00 in0.0 mm 0.01 in0.3 mm
03:45 AM 54.9°F12.7°C 51.6°F10.9°C 89% 4.9 mph NW7.9 kmh NW 8.9 mph14.3 kmh 30.09 in1019.0 mb 0.00 in0.0 mm 0.00 in0.0 mm 0.01 in0.3 mm
03:44 AM 54.9°F12.7°C 51.6°F10.9°C 89% 4.9 mph NW7.9 kmh NW 8.1 mph13.0 kmh 30.09 in1019.0 mb 0.00 in0.0 mm 0.00 in0.0 mm 0.01 in0.3 mm
03:43 AM 54.9°F12.7°C 51.6°F10.9°C 89% 4.9 mph NW7.9 kmh NW 8.9 mph14.3 kmh 30.09 in1019.0 mb 0.00 in0.0 mm 0.00 in0.0 mm 0.01 in0.3 mm
03:42 AM 54.7°F12.6°C 51.3°F10.7°C 88% 6.0 mph 9.7 kmh 8.1 mph13.0 kmh 30.09 in1019.0 mb 0.00 in0.0 mm 0.00 in0.0 mm 0.01 in0.3 mm
03:41 AM 54.7°F12.6°C 51.3°F10.7°C 88% 6.0 mph NW9.7 kmh NW 12.0 mph19.3 kmh 30.09 in1019.0 mb 0.00 in0.0 mm 0.00 in0.0 mm 0.01 in0.3 mm
03:40 AM 54.7°F12.6°C 51.3°F10.7°C 88% 6.0 mph NW9.7 kmh NW 12.0 mph19.3 kmh 30.10 in1019.3 mb 0.00 in0.0 mm 0.00 in0.0 mm 0.01 in0.3 mm
03:39 AM 54.9°F12.7°C 51.4°F10.8°C 88% 6.0 mph NW9.7 kmh NW 6.9 mph11.1 kmh 30.10 in1019.3 mb 0.00 in0.0 mm 0.00 in0.0 mm 0.01 in0.3 mm
03:38 AM 54.9°F12.7°C 51.4°F10.8°C 88% 6.0 mph WNW9.7 kmh WNW 4.9 mph7.9 kmh 30.10 in1019.3 mb 0.00 in0.0 mm 0.00 in0.0 mm 0.01 in0.3 mm
03:37 AM 54.9°F12.7°C 51.4°F10.8°C 88% 6.9 mph NW11.1 kmh NW 6.9 mph11.1 kmh 30.09 in1019.0 mb 0.00 in0.0 mm 0.00 in0.0 mm 0.01 in0.3 mm
03:36 AM 54.9°F12.7°C 51.4°F10.8°C 88% 6.9 mph NW11.1 kmh NW 8.9 mph14.3 kmh 30.09 in1019.0 mb 0.00 in0.0 mm 0.00 in0.0 mm 0.01 in0.3 mm
03:35 AM 54.9°F12.7°C 51.4°F10.8°C 88% 6.9 mph WNW11.1 kmh WNW 8.1 mph13.0 kmh 30.09 in1019.0 mb 0.00 in0.0 mm 0.00 in0.0 mm 0.01 in0.3 mm
03:34 AM 55.0°F12.8°C 51.6°F10.9°C 88% 8.1 mph NW13.0 kmh NW 11.0 mph17.7 kmh 30.08 in1018.6 mb 0.00 in0.0 mm 0.00 in0.0 mm 0.01 in0.3 mm
03:32 AM 55.0°F12.8°C 51.6°F10.9°C 88% 8.1 mph NW13.0 kmh NW 8.9 mph14.3 kmh 30.06 in1017.9 mb 0.00 in0.0 mm 0.00 in0.0 mm 0.01 in0.3 mm
03:31 AM 55.0°F12.8°C 51.6°F10.9°C 88% 8.1 mph WNW13.0 kmh WNW 10.1 mph16.3 kmh 30.07 in1018.3 mb 0.00 in0.0 mm 0.00 in0.0 mm 0.01 in0.3 mm
03:30 AM 54.9°F12.7°C 51.1°F10.6°C 87% 8.1 mph NW13.0 kmh NW 13.0 mph20.9 kmh 30.09 in1019.0 mb 0.00 in0.0 mm 0.00 in0.0 mm 0.01 in0.3 mm
03:29 AM 55.0°F12.8°C 51.3°F10.7°C 87% 8.1 mph NW13.0 kmh NW 8.9 mph14.3 kmh 30.09 in1019.0 mb 0.00 in0.0 mm 0.00 in0.0 mm 0.01 in0.3 mm
03:28 AM 55.0°F12.8°C 51.3°F10.7°C 87% 8.1 mph WNW13.0 kmh WNW 13.0 mph20.9 kmh 30.09 in1019.0 mb 0.00 in0.0 mm 0.00 in0.0 mm 0.01 in0.3 mm
03:27 AM 55.0°F12.8°C 51.3°F10.7°C 87% 8.1 mph NW13.0 kmh NW 11.0 mph17.7 kmh 30.07 in1018.3 mb 0.00 in0.0 mm 0.00 in0.0 mm 0.01 in0.3 mm
03:26 AM 55.0°F12.8°C 51.6°F10.9°C 88% 8.1 mph NW13.0 kmh NW 8.9 mph14.3 kmh 30.06 in1017.9 mb 0.00 in0.0 mm 0.00 in0.0 mm 0.01 in0.3 mm
03:25 AM 55.0°F12.8°C 51.6°F10.9°C 88% 8.1 mph N13.0 kmh N 10.1 mph16.3 kmh 30.06 in1017.9 mb 0.00 in0.0 mm 0.00 in0.0 mm 0.01 in0.3 mm
03:24 AM 55.0°F12.8°C 51.6°F10.9°C 88% 8.1 mph NW13.0 kmh NW 11.0 mph17.7 kmh 30.07 in1018.3 mb 0.00 in0.0 mm 0.00 in0.0 mm 0.01 in0.3 mm
03:23 AM 55.0°F12.8°C 51.3°F10.7°C 87% 8.1 mph NNW13.0 kmh NNW 10.1 mph16.3 kmh 30.08 in1018.6 mb 0.00 in0.0 mm 0.00 in0.0 mm 0.01 in0.3 mm
03:22 AM 55.0°F12.8°C 51.6°F10.9°C 88% 8.1 mph NW13.0 kmh NW 10.1 mph16.3 kmh 30.07 in1018.3 mb 0.00 in0.0 mm 0.00 in0.0 mm 0.01 in0.3 mm
03:20 AM 55.0°F12.8°C 51.6°F10.9°C 88% 8.1 mph NW13.0 kmh NW 12.1 mph19.5 kmh 30.06 in1017.9 mb 0.00 in0.0 mm 0.00 in0.0 mm 0.01 in0.3 mm
03:19 AM 55.0°F12.8°C 51.6°F10.9°C 88% 6.9 mph NW11.1 kmh NW 8.9 mph14.3 kmh 30.05 in1017.6 mb 0.00 in0.0 mm 0.00 in0.0 mm 0.01 in0.3 mm
03:18 AM 55.0°F12.8°C 51.6°F10.9°C 88% 6.9 mph NNW11.1 kmh NNW 14.0 mph22.5 kmh 30.05 in1017.6 mb 0.00 in0.0 mm 0.00 in0.0 mm 0.01 in0.3 mm
03:17 AM 55.0°F12.8°C 51.6°F10.9°C 88% 8.1 mph NNW13.0 kmh NNW 4.9 mph7.9 kmh 30.06 in1017.9 mb 0.00 in0.0 mm 0.00 in0.0 mm 0.01 in0.3 mm
03:16 AM 55.0°F12.8°C 51.6°F10.9°C 88% 8.1 mph NW13.0 kmh NW 10.1 mph16.3 kmh 30.06 in1017.9 mb 0.00 in0.0 mm 0.00 in0.0 mm 0.01 in0.3 mm
03:15 AM 55.0°F12.8°C 51.6°F10.9°C 88% 8.1 mph NW13.0 kmh NW 11.0 mph17.7 kmh 30.08 in1018.6 mb 0.00 in0.0 mm 0.00 in0.0 mm 0.01 in0.3 mm
03:14 AM 55.0°F12.8°C 51.6°F10.9°C 88% 8.1 mph NW13.0 kmh NW 13.0 mph20.9 kmh 30.08 in1018.6 mb 0.00 in0.0 mm 0.00 in0.0 mm 0.01 in0.3 mm
03:13 AM 55.0°F12.8°C 51.6°F10.9°C 88% 8.1 mph NW13.0 kmh NW 12.1 mph19.5 kmh 30.08 in1018.6 mb 0.00 in0.0 mm 0.00 in0.0 mm 0.01 in0.3 mm
03:11 AM 55.0°F12.8°C 51.6°F10.9°C 88% 6.9 mph NW11.1 kmh NW 13.0 mph20.9 kmh 30.09 in1019.0 mb 0.01 in0.3 mm 0.00 in0.0 mm 0.01 in0.3 mm
03:10 AM 55.0°F12.8°C 51.6°F10.9°C 88% 6.9 mph NW11.1 kmh NW 11.0 mph17.7 kmh 30.09 in1019.0 mb 0.01 in0.3 mm 0.00 in0.0 mm 0.01 in0.3 mm
03:09 AM 55.2°F12.9°C 51.8°F11.0°C 88% 6.9 mph WNW11.1 kmh WNW 4.9 mph7.9 kmh 30.09 in1019.0 mb 0.01 in0.3 mm 0.00 in0.0 mm 0.01 in0.3 mm
03:08 AM 55.2°F12.9°C 51.8°F11.0°C 88% 6.9 mph WNW11.1 kmh WNW 15.0 mph24.1 kmh 30.09 in1019.0 mb 0.01 in0.3 mm 0.00 in0.0 mm 0.01 in0.3 mm
03:07 AM 55.0°F12.8°C 51.8°F11.0°C 89% 6.9 mph NW11.1 kmh NW 13.0 mph20.9 kmh 30.07 in1018.3 mb 0.01 in0.3 mm 0.00 in0.0 mm 0.01 in0.3 mm
03:06 AM 55.2°F12.9°C 52.0°F11.1°C 89% 6.0 mph NW9.7 kmh NW 12.0 mph19.3 kmh 30.09 in1019.0 mb 0.01 in0.3 mm 0.00 in0.0 mm 0.01 in0.3 mm
03:05 AM 55.2°F12.9°C 52.0°F11.1°C 89% 6.0 mph NW9.7 kmh NW 12.0 mph19.3 kmh 30.09 in1019.0 mb 0.01 in0.3 mm 0.00 in0.0 mm 0.01 in0.3 mm
03:04 AM 55.2°F12.9°C 52.0°F11.1°C 89% 6.0 mph NW9.7 kmh NW 10.1 mph16.3 kmh 30.07 in1018.3 mb 0.01 in0.3 mm 0.00 in0.0 mm 0.01 in0.3 mm
03:03 AM 55.2°F12.9°C 52.0°F11.1°C 89% 6.0 mph N9.7 kmh N 8.1 mph13.0 kmh 30.06 in1017.9 mb 0.01 in0.3 mm 0.00 in0.0 mm 0.01 in0.3 mm
03:01 AM 55.2°F12.9°C 52.0°F11.1°C 89% 4.9 mph NW7.9 kmh NW 8.1 mph13.0 kmh 30.07 in1018.3 mb 0.01 in0.3 mm 0.00 in0.0 mm 0.01 in0.3 mm
03:00 AM 55.2°F12.9°C 52.3°F11.3°C 90% 4.0 mph NW6.4 kmh NW 11.0 mph17.7 kmh 30.07 in1018.3 mb 0.01 in0.3 mm 0.00 in0.0 mm 0.01 in0.3 mm
02:59 AM 55.2°F12.9°C 52.3°F11.3°C 90% 4.0 mph NW6.4 kmh NW 8.1 mph13.0 kmh 30.07 in1018.3 mb 0.01 in0.3 mm 0.00 in0.0 mm 0.01 in0.3 mm
02:58 AM 55.0°F12.8°C 52.2°F11.2°C 90% 4.0 mph NW6.4 kmh NW 8.1 mph13.0 kmh 30.08 in1018.6 mb 0.01 in0.3 mm 0.00 in0.0 mm 0.01 in0.3 mm
02:57 AM 55.0°F12.8°C 52.2°F11.2°C 90% 4.0 mph NW6.4 kmh NW 10.1 mph16.3 kmh 30.08 in1018.6 mb 0.01 in0.3 mm 0.00 in0.0 mm 0.01 in0.3 mm
02:56 AM 55.0°F12.8°C 52.2°F11.2°C 90% 4.0 mph NW6.4 kmh NW 9.0 mph14.5 kmh 30.09 in1019.0 mb 0.01 in0.3 mm 0.00 in0.0 mm 0.01 in0.3 mm
02:54 AM 55.0°F12.8°C 52.2°F11.2°C 90% 4.0 mph NW6.4 kmh NW 8.1 mph13.0 kmh 30.09 in1019.0 mb 0.01 in0.3 mm 0.00 in0.0 mm 0.01 in0.3 mm
02:53 AM 55.0°F12.8°C 51.8°F11.0°C 89% 4.0 mph NW6.4 kmh NW 6.9 mph11.1 kmh 30.09 in1019.0 mb 0.01 in0.3 mm 0.00 in0.0 mm 0.01 in0.3 mm
02:52 AM 55.0°F12.8°C 51.8°F11.0°C 89% 4.0 mph NW6.4 kmh NW 4.9 mph7.9 kmh 30.09 in1019.0 mb 0.01 in0.3 mm 0.00 in0.0 mm 0.01 in0.3 mm
02:51 AM 55.0°F12.8°C 51.8°F11.0°C 89% 4.0 mph WNW6.4 kmh WNW 4.9 mph7.9 kmh 30.09 in1019.0 mb 0.01 in0.3 mm 0.00 in0.0 mm 0.01 in0.3 mm
02:50 AM 55.0°F12.8°C 51.8°F11.0°C 89% 4.0 mph NW6.4 kmh NW 4.9 mph7.9 kmh 30.09 in1019.0 mb 0.01 in0.3 mm 0.00 in0.0 mm 0.01 in0.3 mm
02:49 AM 55.2°F12.9°C 52.0°F11.1°C 89% 4.0 mph WNW6.4 kmh WNW 8.1 mph13.0 kmh 30.09 in1019.0 mb 0.01 in0.3 mm 0.00 in0.0 mm 0.01 in0.3 mm
02:48 AM 55.2°F12.9°C 52.3°F11.3°C 90% 4.0 mph NW6.4 kmh NW 4.9 mph7.9 kmh 30.09 in1019.0 mb 0.01 in0.3 mm 0.00 in0.0 mm 0.01 in0.3 mm
02:47 AM 55.2°F12.9°C 52.3°F11.3°C 90% 4.0 mph NW6.4 kmh NW 2.9 mph4.7 kmh 30.08 in1018.6 mb 0.01 in0.3 mm 0.00 in0.0 mm 0.01 in0.3 mm
02:45 AM 55.2°F12.9°C 52.3°F11.3°C 90% 4.0 mph NW6.4 kmh NW 8.9 mph14.3 kmh 30.08 in1018.6 mb 0.01 in0.3 mm 0.00 in0.0 mm 0.01 in0.3 mm
02:44 AM 55.2°F12.9°C 52.3°F11.3°C 90% 4.0 mph NW6.4 kmh NW 4.0 mph6.4 kmh 30.08 in1018.6 mb 0.01 in0.3 mm 0.00 in0.0 mm 0.01 in0.3 mm
02:43 AM 55.2°F12.9°C 52.3°F11.3°C 90% 4.0 mph NW6.4 kmh NW 6.0 mph9.7 kmh 30.08 in1018.6 mb 0.01 in0.3 mm 0.00 in0.0 mm 0.01 in0.3 mm
02:42 AM 55.2°F12.9°C 52.3°F11.3°C 90% 4.0 mph NW6.4 kmh NW 8.1 mph13.0 kmh 30.09 in1019.0 mb 0.01 in0.3 mm 0.00 in0.0 mm 0.01 in0.3 mm
02:41 AM 55.2°F12.9°C 52.3°F11.3°C 90% 4.0 mph NW6.4 kmh NW 6.9 mph11.1 kmh 30.09 in1019.0 mb 0.01 in0.3 mm 0.00 in0.0 mm 0.01 in0.3 mm
02:40 AM 55.4°F13.0°C 52.5°F11.4°C 90% 4.0 mph NW6.4 kmh NW 6.9 mph11.1 kmh 30.09 in1019.0 mb 0.01 in0.3 mm 0.00 in0.0 mm 0.01 in0.3 mm
02:39 AM 55.4°F13.0°C 52.5°F11.4°C 90% 4.0 mph NW6.4 kmh NW 4.9 mph7.9 kmh 30.09 in1019.0 mb 0.01 in0.3 mm 0.00 in0.0 mm 0.01 in0.3 mm
02:38 AM 55.4°F13.0°C 52.5°F11.4°C 90% 4.9 mph NW7.9 kmh NW 8.9 mph14.3 kmh 30.09 in1019.0 mb 0.01 in0.3 mm 0.00 in0.0 mm 0.01 in0.3 mm
02:37 AM 55.2°F12.9°C 52.3°F11.3°C 90% 4.9 mph NW7.9 kmh NW 8.9 mph14.3 kmh 30.09 in1019.0 mb 0.01 in0.3 mm 0.00 in0.0 mm 0.01 in0.3 mm
02:36 AM 55.4°F13.0°C 52.5°F11.4°C 90% 4.0 mph NW6.4 kmh NW 6.0 mph9.7 kmh 30.09 in1019.0 mb 0.01 in0.3 mm 0.00 in0.0 mm 0.01 in0.3 mm
02:35 AM 55.6°F13.1°C 52.7°F11.5°C 90% 4.9 mph NW7.9 kmh NW 8.1 mph13.0 kmh 30.09 in1019.0 mb 0.01 in0.3 mm 0.00 in0.0 mm 0.01 in0.3 mm
02:34 AM 55.6°F13.1°C 52.7°F11.5°C 90% 4.9 mph NW7.9 kmh NW 6.9 mph11.1 kmh 30.10 in1019.3 mb 0.01 in0.3 mm 0.00 in0.0 mm 0.01 in0.3 mm
02:33 AM 55.6°F13.1°C 52.7°F11.5°C 90% 4.9 mph NW7.9 kmh NW 8.1 mph13.0 kmh 30.10 in1019.3 mb 0.01 in0.3 mm 0.00 in0.0 mm 0.01 in0.3 mm
02:32 AM 55.6°F13.1°C 52.7°F11.5°C 90% 4.9 mph NW7.9 kmh NW 2.9 mph4.7 kmh 30.10 in1019.3 mb 0.01 in0.3 mm 0.00 in0.0 mm 0.01 in0.3 mm
02:31 AM 55.6°F13.1°C 52.7°F11.5°C 90% 4.9 mph NW7.9 kmh NW 8.1 mph13.0 kmh 30.10 in1019.3 mb 0.01 in0.3 mm 0.00 in0.0 mm 0.01 in0.3 mm
02:30 AM 55.6°F13.1°C 52.7°F11.5°C 90% 6.0 mph NW9.7 kmh NW 8.9 mph14.3 kmh 30.09 in1019.0 mb 0.01 in0.3 mm 0.00 in0.0 mm 0.01 in0.3 mm
02:28 AM 55.6°F13.1°C 52.7°F11.5°C 90% 6.0 mph NW9.7 kmh NW 6.9 mph11.1 kmh 30.10 in1019.3 mb 0.01 in0.3 mm 0.00 in0.0 mm 0.01 in0.3 mm
02:27 AM 55.8°F13.2°C 52.9°F11.6°C 90% 6.0 mph NW9.7 kmh NW 8.1 mph13.0 kmh 30.10 in1019.3 mb 0.01 in0.3 mm 0.00 in0.0 mm 0.01 in0.3 mm
02:26 AM 55.8°F13.2°C 52.9°F11.6°C 90% 4.9 mph NW7.9 kmh NW 11.0 mph17.7 kmh 30.09 in1019.0 mb 0.01 in0.3 mm 0.00 in0.0 mm 0.01 in0.3 mm
02:25 AM 55.8°F13.2°C 52.9°F11.6°C 90% 4.9 mph NW7.9 kmh NW 6.0 mph9.7 kmh 30.09 in1019.0 mb 0.01 in0.3 mm 0.00 in0.0 mm 0.01 in0.3 mm
02:24 AM 55.8°F13.2°C 52.9°F11.6°C 90% 4.9 mph WNW7.9 kmh WNW 8.9 mph14.3 kmh 30.09 in1019.0 mb 0.01 in0.3 mm 0.00 in0.0 mm 0.01 in0.3 mm
02:23 AM 55.8°F13.2°C 52.9°F11.6°C 90% 4.9 mph NW7.9 kmh NW 8.9 mph14.3 kmh 30.09 in1019.0 mb 0.01 in0.3 mm 0.00 in0.0 mm 0.01 in0.3 mm
02:22 AM 55.8°F13.2°C 52.9°F11.6°C 90% 4.9 mph NW7.9 kmh NW 11.0 mph17.7 kmh 30.09 in1019.0 mb 0.01 in0.3 mm 0.00 in0.0 mm 0.01 in0.3 mm
02:21 AM 55.8°F13.2°C 52.9°F11.6°C 90% 4.9 mph NW7.9 kmh NW 8.9 mph14.3 kmh 30.10 in1019.3 mb 0.01 in0.3 mm 0.00 in0.0 mm 0.01 in0.3 mm
02:19 AM 55.8°F13.2°C 52.9°F11.6°C 90% 4.9 mph NW7.9 kmh NW 8.1 mph13.0 kmh 30.10 in1019.3 mb 0.01 in0.3 mm 0.00 in0.0 mm 0.01 in0.3 mm
02:18 AM 55.8°F13.2°C 52.9°F11.6°C 90% 4.9 mph NW7.9 kmh NW 8.9 mph14.3 kmh 30.09 in1019.0 mb 0.01 in0.3 mm 0.00 in0.0 mm 0.01 in0.3 mm
02:17 AM 55.9°F13.3°C 53.1°F11.7°C 90% 4.9 mph NW7.9 kmh NW 4.9 mph7.9 kmh 30.10 in1019.3 mb 0.01 in0.3 mm 0.00 in0.0 mm 0.01 in0.3 mm
02:16 AM 55.9°F13.3°C 53.1°F11.7°C 90% 4.9 mph WNW7.9 kmh WNW 8.9 mph14.3 kmh 30.11 in1019.6 mb 0.01 in0.3 mm 0.00 in0.0 mm 0.01 in0.3 mm
02:15 AM 55.9°F13.3°C 53.1°F11.7°C 90% 4.9 mph NW7.9 kmh NW 6.9 mph11.1 kmh 30.10 in1019.3 mb 0.01 in0.3 mm 0.00 in0.0 mm 0.01 in0.3 mm
02:14 AM 56.1°F13.4°C 53.2°F11.8°C 90% 4.9 mph NW7.9 kmh NW 8.1 mph13.0 kmh 30.09 in1019.0 mb 0.01 in0.3 mm 0.00 in0.0 mm 0.01 in0.3 mm
02:12 AM 56.1°F13.4°C 53.2°F11.8°C 90% 4.9 mph NW7.9 kmh NW 12.0 mph19.3 kmh 30.09 in1019.0 mb 0.01 in0.3 mm 0.60 in15.2 mm 0.01 in0.3 mm
02:11 AM 56.1°F13.4°C 53.2°F11.8°C 90% 4.9 mph NW7.9 kmh NW 8.9 mph14.3 kmh 30.09 in1019.0 mb 0.00 in0.0 mm 0.00 in0.0 mm 0.01 in0.3 mm
02:10 AM 56.3°F13.5°C 53.4°F11.9°C 90% 6.0 mph NW9.7 kmh NW 10.0 mph16.1 kmh 30.09 in1019.0 mb 0.00 in0.0 mm 0.00 in0.0 mm 0.01 in0.3 mm
02:09 AM 56.5°F13.6°C 53.6°F12.0°C 90% 6.0 mph NW9.7 kmh NW 8.1 mph13.0 kmh 30.10 in1019.3 mb 0.00 in0.0 mm 0.00 in0.0 mm 0.01 in0.3 mm
02:08 AM 56.5°F13.6°C 53.6°F12.0°C 90% 6.0 mph WSW9.7 kmh WSW 8.9 mph14.3 kmh 30.06 in1017.9 mb 0.00 in0.0 mm 0.00 in0.0 mm 0.01 in0.3 mm
02:07 AM 56.5°F13.6°C 53.6°F12.0°C 90% 6.0 mph W9.7 kmh W 4.0 mph6.4 kmh 30.06 in1017.9 mb 0.00 in0.0 mm 0.00 in0.0 mm 0.01 in0.3 mm
02:05 AM 56.7°F13.7°C 53.8°F12.1°C 90% 6.0 mph NW9.7 kmh NW 4.9 mph7.9 kmh 30.06 in1017.9 mb 0.00 in0.0 mm 0.00 in0.0 mm 0.01 in0.3 mm
02:04 AM 56.7°F13.7°C 53.4°F11.9°C 89% 6.0 mph NW9.7 kmh NW 8.9 mph14.3 kmh 30.07 in1018.3 mb 0.00 in0.0 mm 0.00 in0.0 mm 0.01 in0.3 mm
02:03 AM 56.7°F13.7°C 53.8°F12.1°C 90% 6.0 mph NW9.7 kmh NW 8.1 mph13.0 kmh 30.08 in1018.6 mb 0.00 in0.0 mm 0.00 in0.0 mm 0.01 in0.3 mm
02:02 AM 56.7°F13.7°C 53.8°F12.1°C 90% 4.9 mph NW7.9 kmh NW 6.9 mph11.1 kmh 30.09 in1019.0 mb 0.00 in0.0 mm 0.00 in0.0 mm 0.01 in0.3 mm
02:01 AM 56.7°F13.7°C 53.4°F11.9°C 89% 6.0 mph NW9.7 kmh NW 10.1 mph16.3 kmh 30.09 in1019.0 mb 0.00 in0.0 mm 0.00 in0.0 mm 0.01 in0.3 mm
02:00 AM 56.7°F13.7°C 53.8°F12.1°C 90% 6.0 mph NW9.7 kmh NW 8.9 mph14.3 kmh 30.09 in1019.0 mb 0.00 in0.0 mm 0.00 in0.0 mm 0.01 in0.3 mm
01:58 AM 56.7°F13.7°C 53.8°F12.1°C 90% 6.0 mph W9.7 kmh W 8.9 mph14.3 kmh 30.09 in1019.0 mb 0.00 in0.0 mm 0.00 in0.0 mm 0.01 in0.3 mm
01:57 AM 56.8°F13.8°C 54.0°F12.2°C 90% 6.9 mph W11.1 kmh W 13.0 mph20.9 kmh 30.10 in1019.3 mb 0.00 in0.0 mm 0.00 in0.0 mm 0.01 in0.3 mm
01:56 AM 56.8°F13.8°C 54.0°F12.2°C 90% 6.9 mph NW11.1 kmh NW 8.9 mph14.3 kmh 30.10 in1019.3 mb 0.00 in0.0 mm 0.00 in0.0 mm 0.01 in0.3 mm
01:55 AM 56.8°F13.8°C 54.0°F12.2°C 90% 6.9 mph NW11.1 kmh NW 8.9 mph14.3 kmh 30.10 in1019.3 mb 0.00 in0.0 mm 0.00 in0.0 mm 0.01 in0.3 mm
01:54 AM 56.8°F13.8°C 54.0°F12.2°C 90% 6.9 mph NW11.1 kmh NW 6.9 mph11.1 kmh 30.11 in1019.6 mb 0.00 in0.0 mm 0.00 in0.0 mm 0.01 in0.3 mm
01:53 AM 57.0°F13.9°C 54.1°F12.3°C 90% 8.1 mph NW13.0 kmh NW 6.0 mph9.7 kmh 30.10 in1019.3 mb 0.00 in0.0 mm 0.00 in0.0 mm 0.01 in0.3 mm
01:52 AM 57.0°F13.9°C 54.1°F12.3°C 90% 8.1 mph WNW13.0 kmh WNW 6.0 mph9.7 kmh 30.09 in1019.0 mb 0.00 in0.0 mm 0.00 in0.0 mm 0.01 in0.3 mm
01:51 AM 57.0°F13.9°C 53.8°F12.1°C 89% 8.1 mph NW13.0 kmh NW 12.1 mph19.5 kmh 30.09 in1019.0 mb 0.00 in0.0 mm 0.00 in0.0 mm 0.01 in0.3 mm
01:49 AM 57.0°F13.9°C 54.1°F12.3°C 90% 8.1 mph NW13.0 kmh NW 12.1 mph19.5 kmh 30.09 in1019.0 mb 0.00 in0.0 mm 0.00 in0.0 mm 0.01 in0.3 mm
01:48 AM 57.2°F14.0°C 54.3°F12.4°C 90% 8.1 mph NW13.0 kmh NW 12.1 mph19.5 kmh 30.09 in1019.0 mb 0.00 in0.0 mm 0.00 in0.0 mm 0.01 in0.3 mm
01:47 AM 57.2°F14.0°C 54.0°F12.2°C 89% 6.9 mph WNW11.1 kmh WNW 12.1 mph19.5 kmh 30.09 in1019.0 mb 0.00 in0.0 mm 0.00 in0.0 mm 0.01 in0.3 mm
01:46 AM 57.2°F14.0°C 54.0°F12.2°C 89% 6.9 mph NW11.1 kmh NW 15.0 mph24.1 kmh 30.08 in1018.6 mb 0.00 in0.0 mm 0.00 in0.0 mm 0.01 in0.3 mm
01:45 AM 57.4°F14.1°C 54.5°F12.5°C 90% 6.9 mph WNW11.1 kmh WNW 13.0 mph20.9 kmh 30.07 in1018.3 mb 0.00 in0.0 mm 0.00 in0.0 mm 0.01 in0.3 mm
01:44 AM 57.4°F14.1°C 54.5°F12.5°C 90% 6.9 mph NW11.1 kmh NW 8.9 mph14.3 kmh 30.07 in1018.3 mb 0.00 in0.0 mm 0.00 in0.0 mm 0.01 in0.3 mm
01:43 AM 57.4°F14.1°C 54.1°F12.3°C 89% 6.9 mph NW11.1 kmh NW 12.1 mph19.5 kmh 30.07 in1018.3 mb 0.00 in0.0 mm 0.00 in0.0 mm 0.01 in0.3 mm
01:42 AM 57.4°F14.1°C 54.5°F12.5°C 90% 6.9 mph NW11.1 kmh NW 6.9 mph11.1 kmh 30.08 in1018.6 mb 0.00 in0.0 mm 0.00 in0.0 mm 0.01 in0.3 mm
01:40 AM 57.4°F14.1°C 54.5°F12.5°C 90% 6.9 mph NW11.1 kmh NW 11.0 mph17.7 kmh 30.08 in1018.6 mb 0.00 in0.0 mm 0.00 in0.0 mm 0.01 in0.3 mm
01:39 AM 57.6°F14.2°C 54.7°F12.6°C 90% 6.9 mph NW11.1 kmh NW 10.1 mph16.3 kmh 30.08 in1018.6 mb 0.00 in0.0 mm 0.00 in0.0 mm 0.01 in0.3 mm
01:38 AM 57.6°F14.2°C 54.7°F12.6°C 90% 8.1 mph NW13.0 kmh NW 8.9 mph14.3 kmh 30.08 in1018.6 mb 0.00 in0.0 mm 0.00 in0.0 mm 0.01 in0.3 mm
01:37 AM 57.6°F14.2°C 54.7°F12.6°C 90% 8.1 mph NW13.0 kmh NW 11.0 mph17.7 kmh 30.09 in1019.0 mb 0.00 in0.0 mm 0.00 in0.0 mm 0.01 in0.3 mm
01:36 AM 57.6°F14.2°C 54.7°F12.6°C 90% 8.9 mph NW14.3 kmh NW 10.1 mph16.3 kmh 30.08 in1018.6 mb 0.00 in0.0 mm 0.00 in0.0 mm 0.01 in0.3 mm
01:35 AM 57.6°F14.2°C 54.7°F12.6°C 90% 8.1 mph WNW13.0 kmh WNW 13.0 mph20.9 kmh 30.08 in1018.6 mb 0.00 in0.0 mm 0.00 in0.0 mm 0.01 in0.3 mm
01:33 AM 57.7°F14.3°C 54.9°F12.7°C 90% 8.9 mph WNW14.3 kmh WNW 8.1 mph13.0 kmh 30.08 in1018.6 mb 0.00 in0.0 mm 0.00 in0.0 mm 0.01 in0.3 mm
01:32 AM 57.7°F14.3°C 54.9°F12.7°C 90% 8.9 mph NW14.3 kmh NW 12.1 mph19.5 kmh 30.08 in1018.6 mb 0.00 in0.0 mm 0.00 in0.0 mm 0.01 in0.3 mm
01:31 AM 57.9°F14.4°C 55.0°F12.8°C 90% 8.9 mph W14.3 kmh W 12.1 mph19.5 kmh 30.08 in1018.6 mb 0.00 in0.0 mm 0.00 in0.0 mm 0.01 in0.3 mm
01:30 AM 57.9°F14.4°C 55.2°F12.9°C 91% 8.9 mph NW14.3 kmh NW 10.1 mph16.3 kmh 30.07 in1018.3 mb 0.00 in0.0 mm 0.00 in0.0 mm 0.01 in0.3 mm
01:29 AM 57.9°F14.4°C 55.0°F12.8°C 90% 10.1 mph NW16.3 kmh NW 14.1 mph22.7 kmh 30.06 in1017.9 mb 0.00 in0.0 mm 0.00 in0.0 mm 0.01 in0.3 mm
01:28 AM 58.1°F14.5°C 55.4°F13.0°C 91% 10.1 mph NW16.3 kmh NW 12.1 mph19.5 kmh 30.06 in1017.9 mb 0.00 in0.0 mm 0.00 in0.0 mm 0.01 in0.3 mm
01:26 AM 58.1°F14.5°C 55.4°F13.0°C 91% 10.1 mph NW16.3 kmh NW 10.1 mph16.3 kmh 30.05 in1017.6 mb 0.00 in0.0 mm 0.00 in0.0 mm 0.01 in0.3 mm
01:25 AM 58.3°F14.6°C 55.6°F13.1°C 91% 11.0 mph NW17.7 kmh NW 8.9 mph14.3 kmh 30.06 in1017.9 mb 0.00 in0.0 mm 0.00 in0.0 mm 0.01 in0.3 mm
01:24 AM 58.3°F14.6°C 55.6°F13.1°C 91% 10.1 mph WNW16.3 kmh WNW 13.0 mph20.9 kmh 30.06 in1017.9 mb 0.00 in0.0 mm 0.00 in0.0 mm 0.01 in0.3 mm
01:23 AM 58.3°F14.6°C 55.6°F13.1°C 91% 10.1 mph NNW16.3 kmh NNW 19.0 mph30.6 kmh 30.06 in1017.9 mb 0.00 in0.0 mm 0.00 in0.0 mm 0.01 in0.3 mm
01:22 AM 58.3°F14.6°C 55.6°F13.1°C 91% 10.1 mph NW16.3 kmh NW 12.1 mph19.5 kmh 30.06 in1017.9 mb 0.00 in0.0 mm 0.00 in0.0 mm 0.01 in0.3 mm
01:21 AM 58.5°F14.7°C 55.8°F13.2°C 91% 10.1 mph NW16.3 kmh NW 8.9 mph14.3 kmh 30.07 in1018.3 mb 0.00 in0.0 mm 0.00 in0.0 mm 0.01 in0.3 mm
01:19 AM 58.3°F14.6°C 55.4°F13.0°C 90% 10.1 mph NW16.3 kmh NW 16.0 mph25.7 kmh 30.07 in1018.3 mb 0.00 in0.0 mm 0.00 in0.0 mm 0.01 in0.3 mm
01:18 AM 58.3°F14.6°C 55.6°F13.1°C 91% 10.1 mph WNW16.3 kmh WNW 14.1 mph22.7 kmh 30.07 in1018.3 mb 0.00 in0.0 mm 0.00 in0.0 mm 0.01 in0.3 mm
01:17 AM 58.5°F14.7°C 55.8°F13.2°C 91% 8.9 mph NW14.3 kmh NW 14.1 mph22.7 kmh 30.06 in1017.9 mb 0.00 in0.0 mm 0.00 in0.0 mm 0.01 in0.3 mm
01:16 AM 58.5°F14.7°C 55.6°F13.1°C 90% 8.9 mph NW14.3 kmh NW 13.0 mph20.9 kmh 30.06 in1017.9 mb 0.00 in0.0 mm 0.00 in0.0 mm 0.01 in0.3 mm
01:15 AM 58.5°F14.7°C 55.8°F13.2°C 91% 8.9 mph NW14.3 kmh NW 12.1 mph19.5 kmh 30.05 in1017.6 mb 0.00 in0.0 mm 0.00 in0.0 mm 0.01 in0.3 mm
01:14 AM 58.5°F14.7°C 55.8°F13.2°C 91% 8.9 mph NNW14.3 kmh NNW 12.1 mph19.5 kmh 30.05 in1017.6 mb 0.00 in0.0 mm 0.00 in0.0 mm 0.01 in0.3 mm
01:12 AM 58.5°F14.7°C 55.8°F13.2°C 91% 8.9 mph NW14.3 kmh NW 12.1 mph19.5 kmh 30.05 in1017.6 mb 0.00 in0.0 mm 0.00 in0.0 mm 0.01 in0.3 mm
01:11 AM 58.6°F14.8°C 55.9°F13.3°C 91% 8.9 mph NW14.3 kmh NW 11.0 mph17.7 kmh 30.04 in1017.3 mb 0.00 in0.0 mm 0.00 in0.0 mm 0.01 in0.3 mm
01:10 AM 58.6°F14.8°C 55.8°F13.2°C 90% 8.9 mph NW14.3 kmh NW 11.0 mph17.7 kmh 30.04 in1017.3 mb 0.00 in0.0 mm 0.00 in0.0 mm 0.01 in0.3 mm
01:09 AM 58.6°F14.8°C 55.9°F13.3°C 91% 8.9 mph NW14.3 kmh NW 15.0 mph24.1 kmh 30.05 in1017.6 mb 0.00 in0.0 mm 0.00 in0.0 mm 0.01 in0.3 mm
01:08 AM 58.6°F14.8°C 55.9°F13.3°C 91% 8.9 mph NW14.3 kmh NW 12.1 mph19.5 kmh 30.06 in1017.9 mb 0.00 in0.0 mm 0.00 in0.0 mm 0.01 in0.3 mm
01:07 AM 58.8°F14.9°C 55.9°F13.3°C 90% 8.9 mph NW14.3 kmh NW 15.0 mph24.1 kmh 30.07 in1018.3 mb 0.00 in0.0 mm 0.00 in0.0 mm 0.01 in0.3 mm
01:06 AM 58.8°F14.9°C 56.1°F13.4°C 91% 8.9 mph WNW14.3 kmh WNW 18.0 mph29.0 kmh 30.07 in1018.3 mb 0.00 in0.0 mm 0.00 in0.0 mm 0.01 in0.3 mm
01:05 AM 59.0°F15.0°C 56.3°F13.5°C 91% 8.9 mph W14.3 kmh W 8.9 mph14.3 kmh 30.07 in1018.3 mb 0.00 in0.0 mm 0.00 in0.0 mm 0.01 in0.3 mm
01:03 AM 59.2°F15.1°C 56.5°F13.6°C 91% 8.9 mph NW14.3 kmh NW 11.0 mph17.7 kmh 30.07 in1018.3 mb 0.00 in0.0 mm 0.00 in0.0 mm 0.01 in0.3 mm
01:02 AM 59.0°F15.0°C 56.3°F13.5°C 91% 8.9 mph NW14.3 kmh NW 14.1 mph22.7 kmh 30.07 in1018.3 mb 0.00 in0.0 mm 0.00 in0.0 mm 0.01 in0.3 mm
01:01 AM 59.2°F15.1°C 56.5°F13.6°C 91% 8.9 mph NW14.3 kmh NW 13.0 mph20.9 kmh 30.07 in1018.3 mb 0.00 in0.0 mm 0.00 in0.0 mm 0.01 in0.3 mm
01:00 AM 59.2°F15.1°C 56.5°F13.6°C 91% 8.9 mph NW14.3 kmh NW 13.0 mph20.9 kmh 30.07 in1018.3 mb 0.00 in0.0 mm 0.00 in0.0 mm 0.01 in0.3 mm
12:59 AM 59.2°F15.1°C 56.5°F13.6°C 91% 10.1 mph NW16.3 kmh NW 16.0 mph25.7 kmh 30.07 in1018.3 mb 0.00 in0.0 mm 0.00 in0.0 mm 0.01 in0.3 mm
12:58 AM 59.2°F15.1°C 56.5°F13.6°C 91% 10.1 mph NW16.3 kmh NW 12.1 mph19.5 kmh 30.07 in1018.3 mb 0.01 in0.3 mm 0.00 in0.0 mm 0.01 in0.3 mm
12:56 AM 59.2°F15.1°C 56.5°F13.6°C 91% 10.1 mph NW16.3 kmh NW 13.0 mph20.9 kmh 30.06 in1017.9 mb 0.01 in0.3 mm 0.00 in0.0 mm 0.01 in0.3 mm
12:55 AM 59.4°F15.2°C 56.7°F13.7°C 91% 8.9 mph NW14.3 kmh NW 14.1 mph22.7 kmh 30.06 in1017.9 mb 0.01 in0.3 mm 0.00 in0.0 mm 0.01 in0.3 mm
12:54 AM 59.4°F15.2°C 56.7°F13.7°C 91% 8.9 mph WNW14.3 kmh WNW 8.9 mph14.3 kmh 30.05 in1017.6 mb 0.01 in0.3 mm 0.00 in0.0 mm 0.01 in0.3 mm
12:53 AM 59.4°F15.2°C 56.7°F13.7°C 91% 8.9 mph NW14.3 kmh NW 11.0 mph17.7 kmh 30.05 in1017.6 mb 0.01 in0.3 mm 0.00 in0.0 mm 0.01 in0.3 mm
12:52 AM 59.4°F15.2°C 56.7°F13.7°C 91% 8.9 mph NW14.3 kmh NW 13.0 mph20.9 kmh 30.05 in1017.6 mb 0.01 in0.3 mm 0.00 in0.0 mm 0.01 in0.3 mm
12:51 AM 59.4°F15.2°C 56.7°F13.7°C 91% 8.1 mph NW13.0 kmh NW 13.0 mph20.9 kmh 30.06 in1017.9 mb 0.01 in0.3 mm 0.00 in0.0 mm 0.01 in0.3 mm
12:49 AM 59.5°F15.3°C 57.2°F14.0°C 92% 8.1 mph NW13.0 kmh NW 15.0 mph24.1 kmh 30.06 in1017.9 mb 0.01 in0.3 mm 0.00 in0.0 mm 0.01 in0.3 mm
12:48 AM 59.5°F15.3°C 57.2°F14.0°C 92% 6.9 mph NW11.1 kmh NW 19.0 mph30.6 kmh 30.06 in1017.9 mb 0.01 in0.3 mm 0.00 in0.0 mm 0.01 in0.3 mm
12:47 AM 59.5°F15.3°C 57.2°F14.0°C 92% 6.0 mph W9.7 kmh W 8.9 mph14.3 kmh 30.06 in1017.9 mb 0.01 in0.3 mm 0.00 in0.0 mm 0.01 in0.3 mm
12:46 AM 59.7°F15.4°C 57.7°F14.3°C 93% 6.0 mph NW9.7 kmh NW 15.0 mph24.1 kmh 30.06 in1017.9 mb 0.01 in0.3 mm 0.00 in0.0 mm 0.01 in0.3 mm
12:45 AM 59.7°F15.4°C 57.4°F14.1°C 92% 6.0 mph W9.7 kmh W 13.0 mph20.9 kmh 30.06 in1017.9 mb 0.01 in0.3 mm 0.00 in0.0 mm 0.01 in0.3 mm
12:44 AM 59.7°F15.4°C 57.7°F14.3°C 93% 6.0 mph NW9.7 kmh NW 11.0 mph17.7 kmh 30.06 in1017.9 mb 0.01 in0.3 mm 0.00 in0.0 mm 0.01 in0.3 mm
12:42 AM 59.7°F15.4°C 57.7°F14.3°C 93% 4.9 mph NW7.9 kmh NW 11.0 mph17.7 kmh 30.05 in1017.6 mb 0.01 in0.3 mm 0.00 in0.0 mm 0.01 in0.3 mm
12:41 AM 59.7°F15.4°C 57.7°F14.3°C 93% 4.9 mph NW7.9 kmh NW 12.0 mph19.3 kmh 30.05 in1017.6 mb 0.01 in0.3 mm 0.00 in0.0 mm 0.01 in0.3 mm
12:40 AM 59.7°F15.4°C 57.7°F14.3°C 93% 4.9 mph NW7.9 kmh NW 8.9 mph14.3 kmh 30.06 in1017.9 mb 0.01 in0.3 mm 0.00 in0.0 mm 0.01 in0.3 mm
12:39 AM 59.7°F15.4°C 57.7°F14.3°C 93% 4.9 mph SSW7.9 kmh SSW 8.1 mph13.0 kmh 30.06 in1017.9 mb 0.01 in0.3 mm 0.00 in0.0 mm 0.01 in0.3 mm
12:38 AM 59.9°F15.5°C 57.9°F14.4°C 93% 6.0 mph NW9.7 kmh NW 4.0 mph6.4 kmh 30.06 in1017.9 mb 0.01 in0.3 mm 0.00 in0.0 mm 0.01 in0.3 mm
12:37 AM 59.9°F15.5°C 57.9°F14.4°C 93% 6.0 mph WNW9.7 kmh WNW 4.0 mph6.4 kmh 30.06 in1017.9 mb 0.01 in0.3 mm 0.00 in0.0 mm 0.01 in0.3 mm
12:36 AM 60.1°F15.6°C 58.1°F14.5°C 93% 6.0 mph NW9.7 kmh NW 8.9 mph14.3 kmh 30.06 in1017.9 mb 0.01 in0.3 mm 0.00 in0.0 mm 0.01 in0.3 mm
12:35 AM 60.1°F15.6°C 58.1°F14.5°C 93% 6.9 mph NW11.1 kmh NW 6.9 mph11.1 kmh 30.06 in1017.9 mb 0.01 in0.3 mm 0.00 in0.0 mm 0.01 in0.3 mm
12:34 AM 60.1°F15.6°C 57.7°F14.3°C 92% 6.9 mph NW11.1 kmh NW 8.9 mph14.3 kmh 30.06 in1017.9 mb 0.01 in0.3 mm 0.00 in0.0 mm 0.01 in0.3 mm
12:32 AM 60.1°F15.6°C 57.7°F14.3°C 92% 6.9 mph WNW11.1 kmh WNW 8.9 mph14.3 kmh 30.05 in1017.6 mb 0.01 in0.3 mm 0.00 in0.0 mm 0.01 in0.3 mm
12:31 AM 60.1°F15.6°C 58.1°F14.5°C 93% 6.9 mph WNW11.1 kmh WNW 8.9 mph14.3 kmh 30.04 in1017.3 mb 0.01 in0.3 mm 0.00 in0.0 mm 0.01 in0.3 mm
12:30 AM 60.3°F15.7°C 58.3°F14.6°C 93% 6.9 mph W11.1 kmh W 8.9 mph14.3 kmh 30.04 in1017.3 mb 0.01 in0.3 mm 0.00 in0.0 mm 0.01 in0.3 mm
12:29 AM 60.3°F15.7°C 57.9°F14.4°C 92% 6.9 mph NW11.1 kmh NW 12.1 mph19.5 kmh 30.04 in1017.3 mb 0.01 in0.3 mm 0.00 in0.0 mm 0.01 in0.3 mm
12:28 AM 60.3°F15.7°C 57.9°F14.4°C 92% 8.1 mph NW13.0 kmh NW 16.0 mph25.7 kmh 30.05 in1017.6 mb 0.01 in0.3 mm 0.00 in0.0 mm 0.01 in0.3 mm
12:27 AM 60.3°F15.7°C 57.9°F14.4°C 92% 6.9 mph NW11.1 kmh NW 15.0 mph24.1 kmh 30.05 in1017.6 mb 0.01 in0.3 mm 0.00 in0.0 mm 0.01 in0.3 mm
12:26 AM 60.3°F15.7°C 57.9°F14.4°C 92% 6.9 mph NW11.1 kmh NW 10.1 mph16.3 kmh 30.05 in1017.6 mb 0.01 in0.3 mm 0.00 in0.0 mm 0.01 in0.3 mm
12:25 AM 60.4°F15.8°C 58.5°F14.7°C 93% 6.9 mph NW11.1 kmh NW 8.9 mph14.3 kmh 30.06 in1017.9 mb 0.01 in0.3 mm 0.00 in0.0 mm 0.01 in0.3 mm
12:23 AM 60.4°F15.8°C 58.5°F14.7°C 93% 6.9 mph NW11.1 kmh NW 8.1 mph13.0 kmh 30.06 in1017.9 mb 0.01 in0.3 mm 0.00 in0.0 mm 0.01 in0.3 mm
12:22 AM 60.4°F15.8°C 58.1°F14.5°C 92% 6.9 mph NW11.1 kmh NW 10.1 mph16.3 kmh 30.05 in1017.6 mb 0.01 in0.3 mm 0.00 in0.0 mm 0.01 in0.3 mm
12:21 AM 60.4°F15.8°C 58.1°F14.5°C 92% 6.9 mph NW11.1 kmh NW 13.0 mph20.9 kmh 30.06 in1017.9 mb 0.01 in0.3 mm 0.00 in0.0 mm 0.01 in0.3 mm
12:20 AM 60.6°F15.9°C 58.3°F14.6°C 92% 6.9 mph NW11.1 kmh NW 15.0 mph24.1 kmh 30.06 in1017.9 mb 0.01 in0.3 mm 0.00 in0.0 mm 0.01 in0.3 mm
12:19 AM 60.6°F15.9°C 58.3°F14.6°C 92% 8.1 mph NW13.0 kmh NW 12.1 mph19.5 kmh 30.06 in1017.9 mb 0.01 in0.3 mm 0.00 in0.0 mm 0.01 in0.3 mm
12:18 AM 60.8°F16.0°C 58.5°F14.7°C 92% 6.9 mph W11.1 kmh W 17.0 mph27.4 kmh 30.06 in1017.9 mb 0.01 in0.3 mm 0.00 in0.0 mm 0.01 in0.3 mm
12:17 AM 60.8°F16.0°C 58.8°F14.9°C 93% 6.9 mph NW11.1 kmh NW 11.0 mph17.7 kmh 30.06 in1017.9 mb 0.01 in0.3 mm 0.00 in0.0 mm 0.01 in0.3 mm
12:16 AM 61.0°F16.1°C 58.6°F14.8°C 92% 6.9 mph WSW11.1 kmh WSW 6.9 mph11.1 kmh 30.06 in1017.9 mb 0.01 in0.3 mm 0.00 in0.0 mm 0.01 in0.3 mm
12:15 AM 61.2°F16.2°C 59.2°F15.1°C 93% 6.9 mph WNW11.1 kmh WNW 11.0 mph17.7 kmh 30.06 in1017.9 mb 0.01 in0.3 mm 0.00 in0.0 mm 0.01 in0.3 mm
12:13 AM 61.2°F16.2°C 58.8°F14.9°C 92% 6.9 mph NW11.1 kmh NW 8.9 mph14.3 kmh 30.06 in1017.9 mb 0.01 in0.3 mm 0.00 in0.0 mm 0.01 in0.3 mm
12:12 AM 61.3°F16.3°C 59.0°F15.0°C 92% 6.0 mph WSW9.7 kmh WSW 17.0 mph27.4 kmh 30.07 in1018.3 mb 0.01 in0.3 mm 0.00 in0.0 mm 0.01 in0.3 mm
12:11 AM 61.3°F16.3°C 59.4°F15.2°C 93% 6.0 mph NW9.7 kmh NW 15.0 mph24.1 kmh 30.07 in1018.3 mb 0.01 in0.3 mm 0.00 in0.0 mm 0.01 in0.3 mm
12:10 AM 61.5°F16.4°C 59.5°F15.3°C 93% 4.9 mph NW7.9 kmh NW 14.1 mph22.7 kmh 30.08 in1018.6 mb 0.01 in0.3 mm 0.00 in0.0 mm 0.01 in0.3 mm
12:09 AM 61.7°F16.5°C 59.9°F15.5°C 94% 4.9 mph NW7.9 kmh NW 14.0 mph22.5 kmh 30.08 in1018.6 mb 0.01 in0.3 mm 0.00 in0.0 mm 0.01 in0.3 mm
12:08 AM 62.1°F16.7°C 60.3°F15.7°C 94% 4.0 mph NW6.4 kmh NW 8.1 mph13.0 kmh 30.08 in1018.6 mb 0.01 in0.3 mm 0.00 in0.0 mm 0.01 in0.3 mm
12:06 AM 62.1°F16.7°C 60.6°F15.9°C 95% 4.0 mph NW6.4 kmh NW 10.1 mph16.3 kmh 30.07 in1018.3 mb 0.01 in0.3 mm 0.00 in0.0 mm 0.01 in0.3 mm
12:05 AM 62.2°F16.8°C 60.8°F16.0°C 95% 4.0 mph W6.4 kmh W 8.1 mph13.0 kmh 30.06 in1017.9 mb 0.01 in0.3 mm 0.00 in0.0 mm 0.01 in0.3 mm
12:04 AM 62.2°F16.8°C 60.8°F16.0°C 95% 4.0 mph WSW6.4 kmh WSW 4.0 mph6.4 kmh 30.05 in1017.6 mb 0.01 in0.3 mm 0.00 in0.0 mm 0.01 in0.3 mm
12:03 AM 62.2°F16.8°C 60.8°F16.0°C 95% 2.9 mph NW4.7 kmh NW 11.0 mph17.7 kmh 30.05 in1017.6 mb 0.01 in0.3 mm 0.00 in0.0 mm 0.01 in0.3 mm
12:02 AM 62.4°F16.9°C 61.0°F16.1°C 95% 2.9 mph WNW4.7 kmh WNW 4.9 mph7.9 kmh 30.05 in1017.6 mb 0.01 in0.3 mm 0.00 in0.0 mm 0.01 in0.3 mm
12:01 AM 62.4°F16.9°C 61.0°F16.1°C 95% 2.9 mph NW4.7 kmh NW 6.0 mph9.7 kmh 30.04 in1017.3 mb 0.01 in0.3 mm 0.60 in15.2 mm 0.01 in0.3 mm